<?xml version="1.0" encoding="UTF-8" standalone="no" ?>
<gpx xmlns="http://www.topografix.com/GPX/1/1" xmlns:xsi="http://www.w3.org/2001/XMLSchema-instance" xsi:schemaLocation="http://www.topografix.com/GPX/1/1 http://www.topografix.com/GPX/1/1/gpx.xsd" version="1.1" creator="VisuGPX - https://www.visugpx.com">
  <metadata>
    <name>Gardanne; le mur de Gueidan </name>
    <desc><![CDATA[
Démarrage depuis le parking de l?écomusée. En sortant, prendre le sentier à droite longeant la route. Traverser ensuite la route à gauche pour prendre le chemin en terre. A partir de là, suivre tout le long le chemin balisé en jaune.]]></desc>
  </metadata>
  <trk>
    <name><![CDATA[Gardanne; le mur de Gueidan _1]]></name>
    <trkseg>
      <trkpt lat="43.47197" lon="5.45358">
        <ele>206</ele>
        <time>2020-03-08T08:17:42Z</time>
      </trkpt>
      <trkpt lat="43.47224" lon="5.45361">
        <ele>199</ele>
        <time>2020-03-08T08:22:20Z</time>
      </trkpt>
      <trkpt lat="43.47232" lon="5.45358">
        <ele>199</ele>
        <time>2020-03-08T08:22:30Z</time>
      </trkpt>
      <trkpt lat="43.47239" lon="5.45353">
        <ele>199</ele>
        <time>2020-03-08T08:22:40Z</time>
      </trkpt>
      <trkpt lat="43.47245" lon="5.45347">
        <ele>200</ele>
        <time>2020-03-08T08:22:50Z</time>
      </trkpt>
      <trkpt lat="43.47255" lon="5.45348">
        <ele>201</ele>
        <time>2020-03-08T08:22:59Z</time>
      </trkpt>
      <trkpt lat="43.47264" lon="5.45356">
        <ele>201</ele>
        <time>2020-03-08T08:23:08Z</time>
      </trkpt>
      <trkpt lat="43.47274" lon="5.45363">
        <ele>204</ele>
        <time>2020-03-08T08:23:18Z</time>
      </trkpt>
      <trkpt lat="43.47283" lon="5.45373">
        <ele>204</ele>
        <time>2020-03-08T08:23:28Z</time>
      </trkpt>
      <trkpt lat="43.47292" lon="5.45383">
        <ele>204</ele>
        <time>2020-03-08T08:23:38Z</time>
      </trkpt>
      <trkpt lat="43.47301" lon="5.4539">
        <ele>204</ele>
        <time>2020-03-08T08:23:47Z</time>
      </trkpt>
      <trkpt lat="43.47307" lon="5.454">
        <ele>205</ele>
        <time>2020-03-08T08:23:56Z</time>
      </trkpt>
      <trkpt lat="43.47312" lon="5.45413">
        <ele>209</ele>
        <time>2020-03-08T08:24:05Z</time>
      </trkpt>
      <trkpt lat="43.47317" lon="5.45426">
        <ele>210</ele>
        <time>2020-03-08T08:24:15Z</time>
      </trkpt>
      <trkpt lat="43.47316" lon="5.45436">
        <ele>210</ele>
        <time>2020-03-08T08:24:25Z</time>
      </trkpt>
      <trkpt lat="43.47318" lon="5.45445">
        <ele>209</ele>
        <time>2020-03-08T08:24:35Z</time>
      </trkpt>
      <trkpt lat="43.47328" lon="5.45456">
        <ele>209</ele>
        <time>2020-03-08T08:24:45Z</time>
      </trkpt>
      <trkpt lat="43.47339" lon="5.45463">
        <ele>209</ele>
        <time>2020-03-08T08:24:54Z</time>
      </trkpt>
      <trkpt lat="43.47345" lon="5.45473">
        <ele>210</ele>
        <time>2020-03-08T08:25:03Z</time>
      </trkpt>
      <trkpt lat="43.47351" lon="5.45485">
        <ele>210</ele>
        <time>2020-03-08T08:25:12Z</time>
      </trkpt>
      <trkpt lat="43.47356" lon="5.45499">
        <ele>210</ele>
        <time>2020-03-08T08:25:22Z</time>
      </trkpt>
      <trkpt lat="43.47358" lon="5.45504">
        <ele>210</ele>
        <time>2020-03-08T08:25:31Z</time>
      </trkpt>
      <trkpt lat="43.47363" lon="5.45509">
        <ele>210</ele>
        <time>2020-03-08T08:25:44Z</time>
      </trkpt>
      <trkpt lat="43.47368" lon="5.45516">
        <ele>209</ele>
        <time>2020-03-08T08:25:54Z</time>
      </trkpt>
      <trkpt lat="43.47374" lon="5.45525">
        <ele>209</ele>
        <time>2020-03-08T08:26:05Z</time>
      </trkpt>
      <trkpt lat="43.47382" lon="5.45529">
        <ele>209</ele>
        <time>2020-03-08T08:26:15Z</time>
      </trkpt>
      <trkpt lat="43.47389" lon="5.45521">
        <ele>209</ele>
        <time>2020-03-08T08:26:25Z</time>
      </trkpt>
      <trkpt lat="43.47398" lon="5.45511">
        <ele>209</ele>
        <time>2020-03-08T08:26:35Z</time>
      </trkpt>
      <trkpt lat="43.47406" lon="5.45502">
        <ele>209</ele>
        <time>2020-03-08T08:26:45Z</time>
      </trkpt>
      <trkpt lat="43.47415" lon="5.45495">
        <ele>209</ele>
        <time>2020-03-08T08:26:55Z</time>
      </trkpt>
      <trkpt lat="43.47424" lon="5.45486">
        <ele>209</ele>
        <time>2020-03-08T08:27:05Z</time>
      </trkpt>
      <trkpt lat="43.47431" lon="5.45477">
        <ele>210</ele>
        <time>2020-03-08T08:27:15Z</time>
      </trkpt>
      <trkpt lat="43.47438" lon="5.45469">
        <ele>211</ele>
        <time>2020-03-08T08:27:25Z</time>
      </trkpt>
      <trkpt lat="43.47446" lon="5.45461">
        <ele>212</ele>
        <time>2020-03-08T08:27:35Z</time>
      </trkpt>
      <trkpt lat="43.47454" lon="5.45455">
        <ele>213</ele>
        <time>2020-03-08T08:27:45Z</time>
      </trkpt>
      <trkpt lat="43.4746" lon="5.45449">
        <ele>213</ele>
        <time>2020-03-08T08:27:54Z</time>
      </trkpt>
      <trkpt lat="43.47468" lon="5.4544">
        <ele>214</ele>
        <time>2020-03-08T08:28:04Z</time>
      </trkpt>
      <trkpt lat="43.47476" lon="5.45432">
        <ele>216</ele>
        <time>2020-03-08T08:28:14Z</time>
      </trkpt>
      <trkpt lat="43.47484" lon="5.45425">
        <ele>217</ele>
        <time>2020-03-08T08:28:24Z</time>
      </trkpt>
      <trkpt lat="43.47491" lon="5.45417">
        <ele>219</ele>
        <time>2020-03-08T08:28:33Z</time>
      </trkpt>
      <trkpt lat="43.47498" lon="5.4541">
        <ele>220</ele>
        <time>2020-03-08T08:28:43Z</time>
      </trkpt>
      <trkpt lat="43.47509" lon="5.45404">
        <ele>221</ele>
        <time>2020-03-08T08:28:53Z</time>
      </trkpt>
      <trkpt lat="43.47518" lon="5.45399">
        <ele>221</ele>
        <time>2020-03-08T08:29:03Z</time>
      </trkpt>
      <trkpt lat="43.47526" lon="5.45396">
        <ele>221</ele>
        <time>2020-03-08T08:29:12Z</time>
      </trkpt>
      <trkpt lat="43.47536" lon="5.45392">
        <ele>221</ele>
        <time>2020-03-08T08:29:22Z</time>
      </trkpt>
      <trkpt lat="43.47544" lon="5.45388">
        <ele>222</ele>
        <time>2020-03-08T08:29:32Z</time>
      </trkpt>
      <trkpt lat="43.47553" lon="5.45386">
        <ele>223</ele>
        <time>2020-03-08T08:29:41Z</time>
      </trkpt>
      <trkpt lat="43.47562" lon="5.4538">
        <ele>225</ele>
        <time>2020-03-08T08:29:51Z</time>
      </trkpt>
      <trkpt lat="43.4757" lon="5.45375">
        <ele>225</ele>
        <time>2020-03-08T08:30:00Z</time>
      </trkpt>
      <trkpt lat="43.47575" lon="5.45366">
        <ele>225</ele>
        <time>2020-03-08T08:30:10Z</time>
      </trkpt>
      <trkpt lat="43.47569" lon="5.45363">
        <ele>225</ele>
        <time>2020-03-08T08:30:19Z</time>
      </trkpt>
      <trkpt lat="43.4756" lon="5.4536">
        <ele>225</ele>
        <time>2020-03-08T08:30:28Z</time>
      </trkpt>
      <trkpt lat="43.47552" lon="5.45355">
        <ele>228</ele>
        <time>2020-03-08T08:30:37Z</time>
      </trkpt>
      <trkpt lat="43.47545" lon="5.45345">
        <ele>229</ele>
        <time>2020-03-08T08:30:47Z</time>
      </trkpt>
      <trkpt lat="43.47538" lon="5.45335">
        <ele>228</ele>
        <time>2020-03-08T08:30:56Z</time>
      </trkpt>
      <trkpt lat="43.47531" lon="5.45326">
        <ele>228</ele>
        <time>2020-03-08T08:31:05Z</time>
      </trkpt>
      <trkpt lat="43.47524" lon="5.45316">
        <ele>228</ele>
        <time>2020-03-08T08:31:14Z</time>
      </trkpt>
      <trkpt lat="43.47526" lon="5.45303">
        <ele>228</ele>
        <time>2020-03-08T08:31:23Z</time>
      </trkpt>
      <trkpt lat="43.47534" lon="5.45303">
        <ele>228</ele>
        <time>2020-03-08T08:31:32Z</time>
      </trkpt>
      <trkpt lat="43.47541" lon="5.45308">
        <ele>232</ele>
        <time>2020-03-08T08:31:42Z</time>
      </trkpt>
      <trkpt lat="43.47549" lon="5.45312">
        <ele>238</ele>
        <time>2020-03-08T08:31:52Z</time>
      </trkpt>
      <trkpt lat="43.47558" lon="5.45314">
        <ele>241</ele>
        <time>2020-03-08T08:32:02Z</time>
      </trkpt>
      <trkpt lat="43.4757" lon="5.45314">
        <ele>244</ele>
        <time>2020-03-08T08:32:12Z</time>
      </trkpt>
      <trkpt lat="43.4758" lon="5.45309">
        <ele>244</ele>
        <time>2020-03-08T08:32:21Z</time>
      </trkpt>
      <trkpt lat="43.47588" lon="5.45306">
        <ele>244</ele>
        <time>2020-03-08T08:32:31Z</time>
      </trkpt>
      <trkpt lat="43.47594" lon="5.45304">
        <ele>248</ele>
        <time>2020-03-08T08:32:41Z</time>
      </trkpt>
      <trkpt lat="43.47601" lon="5.45302">
        <ele>253</ele>
        <time>2020-03-08T08:32:50Z</time>
      </trkpt>
      <trkpt lat="43.47611" lon="5.45299">
        <ele>257</ele>
        <time>2020-03-08T08:33:00Z</time>
      </trkpt>
      <trkpt lat="43.47621" lon="5.45296">
        <ele>258</ele>
        <time>2020-03-08T08:33:10Z</time>
      </trkpt>
      <trkpt lat="43.47629" lon="5.45294">
        <ele>261</ele>
        <time>2020-03-08T08:33:19Z</time>
      </trkpt>
      <trkpt lat="43.47638" lon="5.4529">
        <ele>262</ele>
        <time>2020-03-08T08:33:28Z</time>
      </trkpt>
      <trkpt lat="43.47644" lon="5.45286">
        <ele>262</ele>
        <time>2020-03-08T08:33:37Z</time>
      </trkpt>
      <trkpt lat="43.47646" lon="5.4529">
        <ele>262</ele>
        <time>2020-03-08T08:33:49Z</time>
      </trkpt>
      <trkpt lat="43.47646" lon="5.45295">
        <ele>258</ele>
        <time>2020-03-08T08:33:58Z</time>
      </trkpt>
      <trkpt lat="43.47646" lon="5.45297">
        <ele>256</ele>
        <time>2020-03-08T08:34:10Z</time>
      </trkpt>
      <trkpt lat="43.47646" lon="5.45299">
        <ele>256</ele>
        <time>2020-03-08T08:34:22Z</time>
      </trkpt>
      <trkpt lat="43.47644" lon="5.45304">
        <ele>256</ele>
        <time>2020-03-08T08:34:34Z</time>
      </trkpt>
      <trkpt lat="43.47645" lon="5.45306">
        <ele>256</ele>
        <time>2020-03-08T08:34:43Z</time>
      </trkpt>
      <trkpt lat="43.4765" lon="5.45303">
        <ele>257</ele>
        <time>2020-03-08T08:34:58Z</time>
      </trkpt>
      <trkpt lat="43.47652" lon="5.45298">
        <ele>257</ele>
        <time>2020-03-08T08:35:12Z</time>
      </trkpt>
      <trkpt lat="43.47654" lon="5.45294">
        <ele>257</ele>
        <time>2020-03-08T08:35:21Z</time>
      </trkpt>
      <trkpt lat="43.4766" lon="5.45286">
        <ele>257</ele>
        <time>2020-03-08T08:35:31Z</time>
      </trkpt>
      <trkpt lat="43.47666" lon="5.45278">
        <ele>258</ele>
        <time>2020-03-08T08:35:41Z</time>
      </trkpt>
      <trkpt lat="43.47673" lon="5.45269">
        <ele>259</ele>
        <time>2020-03-08T08:35:51Z</time>
      </trkpt>
      <trkpt lat="43.47678" lon="5.4526">
        <ele>259</ele>
        <time>2020-03-08T08:36:00Z</time>
      </trkpt>
      <trkpt lat="43.47683" lon="5.45254">
        <ele>259</ele>
        <time>2020-03-08T08:36:10Z</time>
      </trkpt>
      <trkpt lat="43.47687" lon="5.45248">
        <ele>259</ele>
        <time>2020-03-08T08:36:20Z</time>
      </trkpt>
      <trkpt lat="43.47694" lon="5.4524">
        <ele>259</ele>
        <time>2020-03-08T08:36:30Z</time>
      </trkpt>
      <trkpt lat="43.47702" lon="5.45234">
        <ele>259</ele>
        <time>2020-03-08T08:36:40Z</time>
      </trkpt>
      <trkpt lat="43.47709" lon="5.45227">
        <ele>259</ele>
        <time>2020-03-08T08:36:50Z</time>
      </trkpt>
      <trkpt lat="43.47715" lon="5.45218">
        <ele>261</ele>
        <time>2020-03-08T08:37:00Z</time>
      </trkpt>
      <trkpt lat="43.47723" lon="5.45209">
        <ele>263</ele>
        <time>2020-03-08T08:37:10Z</time>
      </trkpt>
      <trkpt lat="43.47729" lon="5.452">
        <ele>265</ele>
        <time>2020-03-08T08:37:19Z</time>
      </trkpt>
      <trkpt lat="43.47736" lon="5.45196">
        <ele>265</ele>
        <time>2020-03-08T08:37:29Z</time>
      </trkpt>
      <trkpt lat="43.4774" lon="5.4519">
        <ele>266</ele>
        <time>2020-03-08T08:37:40Z</time>
      </trkpt>
      <trkpt lat="43.47738" lon="5.45195">
        <ele>268</ele>
        <time>2020-03-08T08:37:51Z</time>
      </trkpt>
      <trkpt lat="43.47738" lon="5.45199">
        <ele>270</ele>
        <time>2020-03-08T08:38:00Z</time>
      </trkpt>
      <trkpt lat="43.47741" lon="5.45198">
        <ele>264</ele>
        <time>2020-03-08T08:38:11Z</time>
      </trkpt>
      <trkpt lat="43.47739" lon="5.45197">
        <ele>263</ele>
        <time>2020-03-08T08:38:25Z</time>
      </trkpt>
      <trkpt lat="43.47735" lon="5.45198">
        <ele>263</ele>
        <time>2020-03-08T08:38:34Z</time>
      </trkpt>
      <trkpt lat="43.47728" lon="5.45194">
        <ele>263</ele>
        <time>2020-03-08T08:38:44Z</time>
      </trkpt>
      <trkpt lat="43.47718" lon="5.45191">
        <ele>263</ele>
        <time>2020-03-08T08:38:54Z</time>
      </trkpt>
      <trkpt lat="43.47709" lon="5.45192">
        <ele>263</ele>
        <time>2020-03-08T08:39:04Z</time>
      </trkpt>
      <trkpt lat="43.47702" lon="5.45192">
        <ele>263</ele>
        <time>2020-03-08T08:39:13Z</time>
      </trkpt>
      <trkpt lat="43.47691" lon="5.4519">
        <ele>263</ele>
        <time>2020-03-08T08:39:23Z</time>
      </trkpt>
      <trkpt lat="43.4768" lon="5.45186">
        <ele>263</ele>
        <time>2020-03-08T08:39:34Z</time>
      </trkpt>
      <trkpt lat="43.47671" lon="5.45182">
        <ele>263</ele>
        <time>2020-03-08T08:39:43Z</time>
      </trkpt>
      <trkpt lat="43.47662" lon="5.45183">
        <ele>263</ele>
        <time>2020-03-08T08:39:54Z</time>
      </trkpt>
      <trkpt lat="43.47658" lon="5.4519">
        <ele>263</ele>
        <time>2020-03-08T08:40:03Z</time>
      </trkpt>
      <trkpt lat="43.47656" lon="5.452">
        <ele>263</ele>
        <time>2020-03-08T08:40:13Z</time>
      </trkpt>
      <trkpt lat="43.47647" lon="5.45204">
        <ele>264</ele>
        <time>2020-03-08T08:40:24Z</time>
      </trkpt>
      <trkpt lat="43.47638" lon="5.45197">
        <ele>266</ele>
        <time>2020-03-08T08:40:34Z</time>
      </trkpt>
      <trkpt lat="43.4763" lon="5.45189">
        <ele>266</ele>
        <time>2020-03-08T08:40:45Z</time>
      </trkpt>
      <trkpt lat="43.47621" lon="5.45176">
        <ele>268</ele>
        <time>2020-03-08T08:40:54Z</time>
      </trkpt>
      <trkpt lat="43.47612" lon="5.45164">
        <ele>270</ele>
        <time>2020-03-08T08:41:04Z</time>
      </trkpt>
      <trkpt lat="43.47606" lon="5.45152">
        <ele>271</ele>
        <time>2020-03-08T08:41:14Z</time>
      </trkpt>
      <trkpt lat="43.476" lon="5.45142">
        <ele>272</ele>
        <time>2020-03-08T08:41:24Z</time>
      </trkpt>
      <trkpt lat="43.47598" lon="5.45131">
        <ele>274</ele>
        <time>2020-03-08T08:41:33Z</time>
      </trkpt>
      <trkpt lat="43.47605" lon="5.45139">
        <ele>274</ele>
        <time>2020-03-08T08:41:43Z</time>
      </trkpt>
      <trkpt lat="43.47605" lon="5.45149">
        <ele>274</ele>
        <time>2020-03-08T08:41:52Z</time>
      </trkpt>
      <trkpt lat="43.47601" lon="5.45159">
        <ele>274</ele>
        <time>2020-03-08T08:42:02Z</time>
      </trkpt>
      <trkpt lat="43.47592" lon="5.45164">
        <ele>274</ele>
        <time>2020-03-08T08:42:12Z</time>
      </trkpt>
      <trkpt lat="43.47581" lon="5.45162">
        <ele>274</ele>
        <time>2020-03-08T08:42:21Z</time>
      </trkpt>
      <trkpt lat="43.47571" lon="5.45156">
        <ele>274</ele>
        <time>2020-03-08T08:42:31Z</time>
      </trkpt>
      <trkpt lat="43.47566" lon="5.45144">
        <ele>274</ele>
        <time>2020-03-08T08:42:41Z</time>
      </trkpt>
      <trkpt lat="43.4756" lon="5.45134">
        <ele>274</ele>
        <time>2020-03-08T08:42:51Z</time>
      </trkpt>
      <trkpt lat="43.47557" lon="5.45123">
        <ele>274</ele>
        <time>2020-03-08T08:43:01Z</time>
      </trkpt>
      <trkpt lat="43.47555" lon="5.45112">
        <ele>274</ele>
        <time>2020-03-08T08:43:11Z</time>
      </trkpt>
      <trkpt lat="43.47555" lon="5.45112">
        <ele>274</ele>
        <time>2020-03-08T08:43:22Z</time>
      </trkpt>
      <trkpt lat="43.47557" lon="5.45113">
        <ele>274</ele>
        <time>2020-03-08T08:43:36Z</time>
      </trkpt>
      <trkpt lat="43.47558" lon="5.45113">
        <ele>274</ele>
        <time>2020-03-08T08:43:55Z</time>
      </trkpt>
      <trkpt lat="43.47559" lon="5.45118">
        <ele>272</ele>
        <time>2020-03-08T08:44:16Z</time>
      </trkpt>
      <trkpt lat="43.47558" lon="5.45119">
        <ele>272</ele>
        <time>2020-03-08T08:44:27Z</time>
      </trkpt>
      <trkpt lat="43.47559" lon="5.45118">
        <ele>272</ele>
        <time>2020-03-08T08:44:39Z</time>
      </trkpt>
      <trkpt lat="43.47561" lon="5.45116">
        <ele>272</ele>
        <time>2020-03-08T08:44:55Z</time>
      </trkpt>
      <trkpt lat="43.47561" lon="5.45115">
        <ele>272</ele>
        <time>2020-03-08T08:45:07Z</time>
      </trkpt>
      <trkpt lat="43.47559" lon="5.45112">
        <ele>272</ele>
        <time>2020-03-08T08:45:17Z</time>
      </trkpt>
      <trkpt lat="43.47558" lon="5.45108">
        <ele>272</ele>
        <time>2020-03-08T08:45:26Z</time>
      </trkpt>
      <trkpt lat="43.47554" lon="5.451">
        <ele>272</ele>
        <time>2020-03-08T08:45:36Z</time>
      </trkpt>
      <trkpt lat="43.47551" lon="5.45088">
        <ele>272</ele>
        <time>2020-03-08T08:45:46Z</time>
      </trkpt>
      <trkpt lat="43.4755" lon="5.45078">
        <ele>270</ele>
        <time>2020-03-08T08:45:57Z</time>
      </trkpt>
      <trkpt lat="43.47546" lon="5.45073">
        <ele>270</ele>
        <time>2020-03-08T08:46:06Z</time>
      </trkpt>
      <trkpt lat="43.47548" lon="5.45076">
        <ele>270</ele>
        <time>2020-03-08T08:46:26Z</time>
      </trkpt>
      <trkpt lat="43.47549" lon="5.45078">
        <ele>271</ele>
        <time>2020-03-08T08:46:45Z</time>
      </trkpt>
      <trkpt lat="43.47552" lon="5.45079">
        <ele>271</ele>
        <time>2020-03-08T08:46:55Z</time>
      </trkpt>
      <trkpt lat="43.47548" lon="5.4508">
        <ele>271</ele>
        <time>2020-03-08T08:47:06Z</time>
      </trkpt>
      <trkpt lat="43.47546" lon="5.45081">
        <ele>271</ele>
        <time>2020-03-08T08:47:20Z</time>
      </trkpt>
      <trkpt lat="43.47546" lon="5.45078">
        <ele>271</ele>
        <time>2020-03-08T08:47:30Z</time>
      </trkpt>
      <trkpt lat="43.4755" lon="5.45078">
        <ele>271</ele>
        <time>2020-03-08T08:47:42Z</time>
      </trkpt>
      <trkpt lat="43.47549" lon="5.45079">
        <ele>271</ele>
        <time>2020-03-08T08:47:54Z</time>
      </trkpt>
      <trkpt lat="43.4755" lon="5.45077">
        <ele>271</ele>
        <time>2020-03-08T08:48:05Z</time>
      </trkpt>
      <trkpt lat="43.47551" lon="5.45073">
        <ele>272</ele>
        <time>2020-03-08T08:48:14Z</time>
      </trkpt>
      <trkpt lat="43.47552" lon="5.45076">
        <ele>273</ele>
        <time>2020-03-08T08:48:25Z</time>
      </trkpt>
      <trkpt lat="43.47553" lon="5.45079">
        <ele>274</ele>
        <time>2020-03-08T08:48:36Z</time>
      </trkpt>
      <trkpt lat="43.47554" lon="5.45079">
        <ele>274</ele>
        <time>2020-03-08T08:48:48Z</time>
      </trkpt>
      <trkpt lat="43.47556" lon="5.45078">
        <ele>274</ele>
        <time>2020-03-08T08:49:03Z</time>
      </trkpt>
      <trkpt lat="43.47554" lon="5.45074">
        <ele>274</ele>
        <time>2020-03-08T08:49:13Z</time>
      </trkpt>
      <trkpt lat="43.47549" lon="5.45071">
        <ele>273</ele>
        <time>2020-03-08T08:49:24Z</time>
      </trkpt>
      <trkpt lat="43.4755" lon="5.45072">
        <ele>273</ele>
        <time>2020-03-08T08:49:34Z</time>
      </trkpt>
      <trkpt lat="43.47552" lon="5.45075">
        <ele>273</ele>
        <time>2020-03-08T08:49:47Z</time>
      </trkpt>
      <trkpt lat="43.47553" lon="5.45075">
        <ele>273</ele>
        <time>2020-03-08T08:50:07Z</time>
      </trkpt>
      <trkpt lat="43.47554" lon="5.45076">
        <ele>272</ele>
        <time>2020-03-08T08:50:21Z</time>
      </trkpt>
      <trkpt lat="43.47555" lon="5.45076">
        <ele>272</ele>
        <time>2020-03-08T08:50:37Z</time>
      </trkpt>
      <trkpt lat="43.47554" lon="5.45076">
        <ele>272</ele>
        <time>2020-03-08T08:50:53Z</time>
      </trkpt>
      <trkpt lat="43.47551" lon="5.45077">
        <ele>275</ele>
        <time>2020-03-08T08:51:04Z</time>
      </trkpt>
      <trkpt lat="43.47551" lon="5.45076">
        <ele>277</ele>
        <time>2020-03-08T08:51:22Z</time>
      </trkpt>
      <trkpt lat="43.47552" lon="5.45074">
        <ele>275</ele>
        <time>2020-03-08T08:51:31Z</time>
      </trkpt>
      <trkpt lat="43.47554" lon="5.45072">
        <ele>268</ele>
        <time>2020-03-08T08:51:47Z</time>
      </trkpt>
      <trkpt lat="43.47557" lon="5.45072">
        <ele>265</ele>
        <time>2020-03-08T08:52:00Z</time>
      </trkpt>
      <trkpt lat="43.47561" lon="5.45075">
        <ele>265</ele>
        <time>2020-03-08T08:52:09Z</time>
      </trkpt>
      <trkpt lat="43.47569" lon="5.45073">
        <ele>265</ele>
        <time>2020-03-08T08:52:19Z</time>
      </trkpt>
      <trkpt lat="43.47579" lon="5.45074">
        <ele>265</ele>
        <time>2020-03-08T08:52:29Z</time>
      </trkpt>
      <trkpt lat="43.47588" lon="5.45075">
        <ele>265</ele>
        <time>2020-03-08T08:52:39Z</time>
      </trkpt>
      <trkpt lat="43.47588" lon="5.45063">
        <ele>265</ele>
        <time>2020-03-08T08:52:49Z</time>
      </trkpt>
      <trkpt lat="43.47586" lon="5.45051">
        <ele>265</ele>
        <time>2020-03-08T08:52:58Z</time>
      </trkpt>
      <trkpt lat="43.47586" lon="5.45038">
        <ele>265</ele>
        <time>2020-03-08T08:53:07Z</time>
      </trkpt>
      <trkpt lat="43.47584" lon="5.45025">
        <ele>265</ele>
        <time>2020-03-08T08:53:16Z</time>
      </trkpt>
      <trkpt lat="43.47579" lon="5.45013">
        <ele>265</ele>
        <time>2020-03-08T08:53:27Z</time>
      </trkpt>
      <trkpt lat="43.47578" lon="5.45001">
        <ele>265</ele>
        <time>2020-03-08T08:53:36Z</time>
      </trkpt>
      <trkpt lat="43.47579" lon="5.44988">
        <ele>265</ele>
        <time>2020-03-08T08:53:45Z</time>
      </trkpt>
      <trkpt lat="43.47578" lon="5.44974">
        <ele>265</ele>
        <time>2020-03-08T08:53:55Z</time>
      </trkpt>
      <trkpt lat="43.47575" lon="5.44958">
        <ele>265</ele>
        <time>2020-03-08T08:54:05Z</time>
      </trkpt>
      <trkpt lat="43.47571" lon="5.44944">
        <ele>265</ele>
        <time>2020-03-08T08:54:15Z</time>
      </trkpt>
      <trkpt lat="43.47569" lon="5.4493">
        <ele>265</ele>
        <time>2020-03-08T08:54:24Z</time>
      </trkpt>
      <trkpt lat="43.47567" lon="5.44918">
        <ele>265</ele>
        <time>2020-03-08T08:54:33Z</time>
      </trkpt>
      <trkpt lat="43.47565" lon="5.44904">
        <ele>264</ele>
        <time>2020-03-08T08:54:42Z</time>
      </trkpt>
      <trkpt lat="43.47564" lon="5.44889">
        <ele>263</ele>
        <time>2020-03-08T08:54:51Z</time>
      </trkpt>
      <trkpt lat="43.47561" lon="5.44877">
        <ele>263</ele>
        <time>2020-03-08T08:55:00Z</time>
      </trkpt>
      <trkpt lat="43.47557" lon="5.44864">
        <ele>261</ele>
        <time>2020-03-08T08:55:09Z</time>
      </trkpt>
      <trkpt lat="43.47554" lon="5.44854">
        <ele>260</ele>
        <time>2020-03-08T08:55:18Z</time>
      </trkpt>
      <trkpt lat="43.47551" lon="5.4484">
        <ele>260</ele>
        <time>2020-03-08T08:55:27Z</time>
      </trkpt>
      <trkpt lat="43.47547" lon="5.44827">
        <ele>259</ele>
        <time>2020-03-08T08:55:36Z</time>
      </trkpt>
      <trkpt lat="43.4754" lon="5.44816">
        <ele>258</ele>
        <time>2020-03-08T08:55:46Z</time>
      </trkpt>
      <trkpt lat="43.47537" lon="5.44802">
        <ele>255</ele>
        <time>2020-03-08T08:55:55Z</time>
      </trkpt>
      <trkpt lat="43.47538" lon="5.44787">
        <ele>255</ele>
        <time>2020-03-08T08:56:04Z</time>
      </trkpt>
      <trkpt lat="43.47541" lon="5.44774">
        <ele>255</ele>
        <time>2020-03-08T08:56:14Z</time>
      </trkpt>
      <trkpt lat="43.4754" lon="5.44759">
        <ele>255</ele>
        <time>2020-03-08T08:56:23Z</time>
      </trkpt>
      <trkpt lat="43.47537" lon="5.44746">
        <ele>255</ele>
        <time>2020-03-08T08:56:32Z</time>
      </trkpt>
      <trkpt lat="43.47531" lon="5.44734">
        <ele>255</ele>
        <time>2020-03-08T08:56:41Z</time>
      </trkpt>
      <trkpt lat="43.47527" lon="5.44724">
        <ele>255</ele>
        <time>2020-03-08T08:56:51Z</time>
      </trkpt>
      <trkpt lat="43.47521" lon="5.44715">
        <ele>254</ele>
        <time>2020-03-08T08:57:00Z</time>
      </trkpt>
      <trkpt lat="43.47516" lon="5.44701">
        <ele>252</ele>
        <time>2020-03-08T08:57:09Z</time>
      </trkpt>
      <trkpt lat="43.47512" lon="5.44688">
        <ele>250</ele>
        <time>2020-03-08T08:57:18Z</time>
      </trkpt>
      <trkpt lat="43.47507" lon="5.44675">
        <ele>250</ele>
        <time>2020-03-08T08:57:27Z</time>
      </trkpt>
      <trkpt lat="43.47504" lon="5.44662">
        <ele>249</ele>
        <time>2020-03-08T08:57:36Z</time>
      </trkpt>
      <trkpt lat="43.47495" lon="5.44656">
        <ele>249</ele>
        <time>2020-03-08T08:57:46Z</time>
      </trkpt>
      <trkpt lat="43.47487" lon="5.44647">
        <ele>249</ele>
        <time>2020-03-08T08:57:55Z</time>
      </trkpt>
      <trkpt lat="43.47482" lon="5.44639">
        <ele>248</ele>
        <time>2020-03-08T08:58:10Z</time>
      </trkpt>
      <trkpt lat="43.47481" lon="5.44638">
        <ele>248</ele>
        <time>2020-03-08T08:58:24Z</time>
      </trkpt>
      <trkpt lat="43.4748" lon="5.44637">
        <ele>248</ele>
        <time>2020-03-08T08:58:38Z</time>
      </trkpt>
      <trkpt lat="43.47478" lon="5.44636">
        <ele>248</ele>
        <time>2020-03-08T08:58:58Z</time>
      </trkpt>
      <trkpt lat="43.47477" lon="5.44634">
        <ele>248</ele>
        <time>2020-03-08T08:59:07Z</time>
      </trkpt>
      <trkpt lat="43.47471" lon="5.44632">
        <ele>248</ele>
        <time>2020-03-08T08:59:16Z</time>
      </trkpt>
      <trkpt lat="43.47462" lon="5.4463">
        <ele>248</ele>
        <time>2020-03-08T08:59:26Z</time>
      </trkpt>
      <trkpt lat="43.47454" lon="5.44627">
        <ele>248</ele>
        <time>2020-03-08T08:59:35Z</time>
      </trkpt>
      <trkpt lat="43.47446" lon="5.44621">
        <ele>248</ele>
        <time>2020-03-08T08:59:45Z</time>
      </trkpt>
      <trkpt lat="43.47437" lon="5.44616">
        <ele>248</ele>
        <time>2020-03-08T08:59:55Z</time>
      </trkpt>
      <trkpt lat="43.47424" lon="5.44616">
        <ele>248</ele>
        <time>2020-03-08T09:00:04Z</time>
      </trkpt>
      <trkpt lat="43.47422" lon="5.44604">
        <ele>247</ele>
        <time>2020-03-08T09:00:13Z</time>
      </trkpt>
      <trkpt lat="43.47421" lon="5.4459">
        <ele>242</ele>
        <time>2020-03-08T09:00:22Z</time>
      </trkpt>
      <trkpt lat="43.47422" lon="5.44577">
        <ele>239</ele>
        <time>2020-03-08T09:00:31Z</time>
      </trkpt>
      <trkpt lat="43.47423" lon="5.44564">
        <ele>236</ele>
        <time>2020-03-08T09:00:41Z</time>
      </trkpt>
      <trkpt lat="43.47422" lon="5.44553">
        <ele>236</ele>
        <time>2020-03-08T09:00:51Z</time>
      </trkpt>
      <trkpt lat="43.47419" lon="5.44542">
        <ele>236</ele>
        <time>2020-03-08T09:01:00Z</time>
      </trkpt>
      <trkpt lat="43.47415" lon="5.44531">
        <ele>235</ele>
        <time>2020-03-08T09:01:09Z</time>
      </trkpt>
      <trkpt lat="43.47413" lon="5.44522">
        <ele>234</ele>
        <time>2020-03-08T09:01:27Z</time>
      </trkpt>
      <trkpt lat="43.47412" lon="5.44521">
        <ele>234</ele>
        <time>2020-03-08T09:01:38Z</time>
      </trkpt>
      <trkpt lat="43.47412" lon="5.44519">
        <ele>235</ele>
        <time>2020-03-08T09:01:59Z</time>
      </trkpt>
      <trkpt lat="43.47412" lon="5.44515">
        <ele>235</ele>
        <time>2020-03-08T09:02:16Z</time>
      </trkpt>
      <trkpt lat="43.47414" lon="5.44516">
        <ele>236</ele>
        <time>2020-03-08T09:02:38Z</time>
      </trkpt>
      <trkpt lat="43.47413" lon="5.44516">
        <ele>236</ele>
        <time>2020-03-08T09:02:55Z</time>
      </trkpt>
      <trkpt lat="43.47411" lon="5.44516">
        <ele>236</ele>
        <time>2020-03-08T09:03:06Z</time>
      </trkpt>
      <trkpt lat="43.4741" lon="5.44516">
        <ele>238</ele>
        <time>2020-03-08T09:03:20Z</time>
      </trkpt>
      <trkpt lat="43.47411" lon="5.44516">
        <ele>238</ele>
        <time>2020-03-08T09:03:32Z</time>
      </trkpt>
      <trkpt lat="43.47412" lon="5.44516">
        <ele>238</ele>
        <time>2020-03-08T09:03:42Z</time>
      </trkpt>
      <trkpt lat="43.47413" lon="5.4451">
        <ele>238</ele>
        <time>2020-03-08T09:03:55Z</time>
      </trkpt>
      <trkpt lat="43.47412" lon="5.44509">
        <ele>238</ele>
        <time>2020-03-08T09:04:04Z</time>
      </trkpt>
      <trkpt lat="43.47406" lon="5.44499">
        <ele>238</ele>
        <time>2020-03-08T09:04:14Z</time>
      </trkpt>
      <trkpt lat="43.47401" lon="5.44491">
        <ele>237</ele>
        <time>2020-03-08T09:04:24Z</time>
      </trkpt>
      <trkpt lat="43.47397" lon="5.44481">
        <ele>235</ele>
        <time>2020-03-08T09:04:34Z</time>
      </trkpt>
      <trkpt lat="43.4739" lon="5.44471">
        <ele>233</ele>
        <time>2020-03-08T09:04:44Z</time>
      </trkpt>
      <trkpt lat="43.47387" lon="5.44463">
        <ele>232</ele>
        <time>2020-03-08T09:04:53Z</time>
      </trkpt>
      <trkpt lat="43.47384" lon="5.44456">
        <ele>230</ele>
        <time>2020-03-08T09:05:03Z</time>
      </trkpt>
      <trkpt lat="43.4738" lon="5.44444">
        <ele>229</ele>
        <time>2020-03-08T09:05:12Z</time>
      </trkpt>
      <trkpt lat="43.47377" lon="5.4443">
        <ele>227</ele>
        <time>2020-03-08T09:05:21Z</time>
      </trkpt>
      <trkpt lat="43.47373" lon="5.44418">
        <ele>224</ele>
        <time>2020-03-08T09:05:30Z</time>
      </trkpt>
      <trkpt lat="43.4737" lon="5.44404">
        <ele>223</ele>
        <time>2020-03-08T09:05:40Z</time>
      </trkpt>
      <trkpt lat="43.47369" lon="5.44392">
        <ele>221</ele>
        <time>2020-03-08T09:05:49Z</time>
      </trkpt>
      <trkpt lat="43.47365" lon="5.44382">
        <ele>221</ele>
        <time>2020-03-08T09:05:58Z</time>
      </trkpt>
      <trkpt lat="43.47366" lon="5.44369">
        <ele>221</ele>
        <time>2020-03-08T09:06:07Z</time>
      </trkpt>
      <trkpt lat="43.47366" lon="5.44364">
        <ele>221</ele>
        <time>2020-03-08T09:06:17Z</time>
      </trkpt>
      <trkpt lat="43.47363" lon="5.44351">
        <ele>221</ele>
        <time>2020-03-08T09:06:26Z</time>
      </trkpt>
      <trkpt lat="43.47363" lon="5.44338">
        <ele>219</ele>
        <time>2020-03-08T09:06:35Z</time>
      </trkpt>
      <trkpt lat="43.47365" lon="5.4433">
        <ele>216</ele>
        <time>2020-03-08T09:06:49Z</time>
      </trkpt>
      <trkpt lat="43.47372" lon="5.44324">
        <ele>213</ele>
        <time>2020-03-08T09:06:59Z</time>
      </trkpt>
      <trkpt lat="43.47377" lon="5.44315">
        <ele>211</ele>
        <time>2020-03-08T09:07:09Z</time>
      </trkpt>
      <trkpt lat="43.47376" lon="5.44304">
        <ele>210</ele>
        <time>2020-03-08T09:07:19Z</time>
      </trkpt>
      <trkpt lat="43.4738" lon="5.44301">
        <ele>210</ele>
        <time>2020-03-08T09:07:29Z</time>
      </trkpt>
      <trkpt lat="43.47383" lon="5.44299">
        <ele>210</ele>
        <time>2020-03-08T09:07:38Z</time>
      </trkpt>
      <trkpt lat="43.47385" lon="5.44298">
        <ele>210</ele>
        <time>2020-03-08T09:07:48Z</time>
      </trkpt>
      <trkpt lat="43.47385" lon="5.44296">
        <ele>210</ele>
        <time>2020-03-08T09:07:58Z</time>
      </trkpt>
      <trkpt lat="43.4738" lon="5.44303">
        <ele>210</ele>
        <time>2020-03-08T09:08:08Z</time>
      </trkpt>
      <trkpt lat="43.47382" lon="5.44307">
        <ele>212</ele>
        <time>2020-03-08T09:08:19Z</time>
      </trkpt>
      <trkpt lat="43.47384" lon="5.44308">
        <ele>214</ele>
        <time>2020-03-08T09:08:30Z</time>
      </trkpt>
      <trkpt lat="43.47386" lon="5.44305">
        <ele>217</ele>
        <time>2020-03-08T09:08:42Z</time>
      </trkpt>
      <trkpt lat="43.47387" lon="5.44305">
        <ele>217</ele>
        <time>2020-03-08T09:08:51Z</time>
      </trkpt>
      <trkpt lat="43.47387" lon="5.44301">
        <ele>217</ele>
        <time>2020-03-08T09:09:00Z</time>
      </trkpt>
      <trkpt lat="43.47384" lon="5.44297">
        <ele>216</ele>
        <time>2020-03-08T09:09:09Z</time>
      </trkpt>
      <trkpt lat="43.47383" lon="5.44288">
        <ele>210</ele>
        <time>2020-03-08T09:09:19Z</time>
      </trkpt>
      <trkpt lat="43.47384" lon="5.44285">
        <ele>208</ele>
        <time>2020-03-08T09:09:40Z</time>
      </trkpt>
      <trkpt lat="43.47384" lon="5.44283">
        <ele>207</ele>
        <time>2020-03-08T09:09:55Z</time>
      </trkpt>
      <trkpt lat="43.47386" lon="5.44279">
        <ele>207</ele>
        <time>2020-03-08T09:10:04Z</time>
      </trkpt>
      <trkpt lat="43.47391" lon="5.44277">
        <ele>207</ele>
        <time>2020-03-08T09:10:13Z</time>
      </trkpt>
      <trkpt lat="43.47398" lon="5.44275">
        <ele>207</ele>
        <time>2020-03-08T09:10:23Z</time>
      </trkpt>
      <trkpt lat="43.47402" lon="5.44271">
        <ele>207</ele>
        <time>2020-03-08T09:10:33Z</time>
      </trkpt>
      <trkpt lat="43.47406" lon="5.44265">
        <ele>210</ele>
        <time>2020-03-08T09:10:43Z</time>
      </trkpt>
      <trkpt lat="43.47408" lon="5.44257">
        <ele>211</ele>
        <time>2020-03-08T09:10:52Z</time>
      </trkpt>
      <trkpt lat="43.47406" lon="5.44258">
        <ele>212</ele>
        <time>2020-03-08T09:11:06Z</time>
      </trkpt>
      <trkpt lat="43.47398" lon="5.44253">
        <ele>212</ele>
        <time>2020-03-08T09:11:17Z</time>
      </trkpt>
      <trkpt lat="43.47389" lon="5.44251">
        <ele>212</ele>
        <time>2020-03-08T09:11:27Z</time>
      </trkpt>
      <trkpt lat="43.47383" lon="5.4424">
        <ele>212</ele>
        <time>2020-03-08T09:11:37Z</time>
      </trkpt>
      <trkpt lat="43.47373" lon="5.44233">
        <ele>212</ele>
        <time>2020-03-08T09:11:48Z</time>
      </trkpt>
      <trkpt lat="43.47365" lon="5.44235">
        <ele>212</ele>
        <time>2020-03-08T09:11:58Z</time>
      </trkpt>
      <trkpt lat="43.47358" lon="5.44227">
        <ele>212</ele>
        <time>2020-03-08T09:12:07Z</time>
      </trkpt>
      <trkpt lat="43.4735" lon="5.44215">
        <ele>212</ele>
        <time>2020-03-08T09:12:17Z</time>
      </trkpt>
      <trkpt lat="43.4735" lon="5.44212">
        <ele>212</ele>
        <time>2020-03-08T09:12:27Z</time>
      </trkpt>
      <trkpt lat="43.47351" lon="5.44211">
        <ele>212</ele>
        <time>2020-03-08T09:12:40Z</time>
      </trkpt>
      <trkpt lat="43.47353" lon="5.44209">
        <ele>212</ele>
        <time>2020-03-08T09:12:50Z</time>
      </trkpt>
      <trkpt lat="43.47351" lon="5.44208">
        <ele>212</ele>
        <time>2020-03-08T09:13:02Z</time>
      </trkpt>
      <trkpt lat="43.47344" lon="5.44204">
        <ele>212</ele>
        <time>2020-03-08T09:13:15Z</time>
      </trkpt>
      <trkpt lat="43.47342" lon="5.44203">
        <ele>212</ele>
        <time>2020-03-08T09:13:24Z</time>
      </trkpt>
      <trkpt lat="43.47342" lon="5.44201">
        <ele>212</ele>
        <time>2020-03-08T09:13:40Z</time>
      </trkpt>
      <trkpt lat="43.47343" lon="5.4419">
        <ele>212</ele>
        <time>2020-03-08T09:13:50Z</time>
      </trkpt>
      <trkpt lat="43.47346" lon="5.44182">
        <ele>212</ele>
        <time>2020-03-08T09:14:00Z</time>
      </trkpt>
      <trkpt lat="43.47349" lon="5.44177">
        <ele>212</ele>
        <time>2020-03-08T09:14:11Z</time>
      </trkpt>
      <trkpt lat="43.47354" lon="5.44171">
        <ele>212</ele>
        <time>2020-03-08T09:14:29Z</time>
      </trkpt>
      <trkpt lat="43.47355" lon="5.44173">
        <ele>212</ele>
        <time>2020-03-08T09:14:47Z</time>
      </trkpt>
      <trkpt lat="43.47354" lon="5.44175">
        <ele>209</ele>
        <time>2020-03-08T09:15:06Z</time>
      </trkpt>
      <trkpt lat="43.47357" lon="5.44166">
        <ele>207</ele>
        <time>2020-03-08T09:15:19Z</time>
      </trkpt>
      <trkpt lat="43.47361" lon="5.44166">
        <ele>207</ele>
        <time>2020-03-08T09:15:29Z</time>
      </trkpt>
      <trkpt lat="43.47366" lon="5.44168">
        <ele>207</ele>
        <time>2020-03-08T09:15:39Z</time>
      </trkpt>
      <trkpt lat="43.47371" lon="5.44167">
        <ele>206</ele>
        <time>2020-03-08T09:15:51Z</time>
      </trkpt>
      <trkpt lat="43.47378" lon="5.44167">
        <ele>206</ele>
        <time>2020-03-08T09:16:01Z</time>
      </trkpt>
      <trkpt lat="43.47385" lon="5.44165">
        <ele>206</ele>
        <time>2020-03-08T09:16:10Z</time>
      </trkpt>
      <trkpt lat="43.47393" lon="5.44159">
        <ele>205</ele>
        <time>2020-03-08T09:16:21Z</time>
      </trkpt>
      <trkpt lat="43.47402" lon="5.44156">
        <ele>205</ele>
        <time>2020-03-08T09:16:32Z</time>
      </trkpt>
      <trkpt lat="43.47409" lon="5.4416">
        <ele>205</ele>
        <time>2020-03-08T09:16:41Z</time>
      </trkpt>
      <trkpt lat="43.47418" lon="5.44161">
        <ele>205</ele>
        <time>2020-03-08T09:16:51Z</time>
      </trkpt>
      <trkpt lat="43.47424" lon="5.44155">
        <ele>205</ele>
        <time>2020-03-08T09:17:02Z</time>
      </trkpt>
      <trkpt lat="43.47422" lon="5.44147">
        <ele>205</ele>
        <time>2020-03-08T09:17:13Z</time>
      </trkpt>
      <trkpt lat="43.4742" lon="5.44139">
        <ele>205</ele>
        <time>2020-03-08T09:17:23Z</time>
      </trkpt>
      <trkpt lat="43.47417" lon="5.44132">
        <ele>201</ele>
        <time>2020-03-08T09:17:34Z</time>
      </trkpt>
      <trkpt lat="43.47415" lon="5.44124">
        <ele>198</ele>
        <time>2020-03-08T09:17:44Z</time>
      </trkpt>
      <trkpt lat="43.47413" lon="5.44115">
        <ele>198</ele>
        <time>2020-03-08T09:17:53Z</time>
      </trkpt>
      <trkpt lat="43.47415" lon="5.44105">
        <ele>198</ele>
        <time>2020-03-08T09:18:03Z</time>
      </trkpt>
      <trkpt lat="43.47418" lon="5.44098">
        <ele>198</ele>
        <time>2020-03-08T09:18:12Z</time>
      </trkpt>
      <trkpt lat="43.47423" lon="5.44089">
        <ele>198</ele>
        <time>2020-03-08T09:18:23Z</time>
      </trkpt>
      <trkpt lat="43.47429" lon="5.44081">
        <ele>198</ele>
        <time>2020-03-08T09:18:33Z</time>
      </trkpt>
      <trkpt lat="43.47436" lon="5.44074">
        <ele>198</ele>
        <time>2020-03-08T09:18:50Z</time>
      </trkpt>
      <trkpt lat="43.47438" lon="5.44072">
        <ele>201</ele>
        <time>2020-03-08T09:19:11Z</time>
      </trkpt>
      <trkpt lat="43.4744" lon="5.44067">
        <ele>205</ele>
        <time>2020-03-08T09:19:29Z</time>
      </trkpt>
      <trkpt lat="43.47447" lon="5.44062">
        <ele>205</ele>
        <time>2020-03-08T09:19:38Z</time>
      </trkpt>
      <trkpt lat="43.47455" lon="5.44053">
        <ele>205</ele>
        <time>2020-03-08T09:19:48Z</time>
      </trkpt>
      <trkpt lat="43.47456" lon="5.4405">
        <ele>207</ele>
        <time>2020-03-08T09:19:57Z</time>
      </trkpt>
      <trkpt lat="43.4746" lon="5.44043">
        <ele>207</ele>
        <time>2020-03-08T09:20:07Z</time>
      </trkpt>
      <trkpt lat="43.47461" lon="5.44036">
        <ele>207</ele>
        <time>2020-03-08T09:20:20Z</time>
      </trkpt>
      <trkpt lat="43.47464" lon="5.44035">
        <ele>205</ele>
        <time>2020-03-08T09:20:30Z</time>
      </trkpt>
      <trkpt lat="43.47463" lon="5.44034">
        <ele>205</ele>
        <time>2020-03-08T09:20:42Z</time>
      </trkpt>
      <trkpt lat="43.47465" lon="5.44031">
        <ele>204</ele>
        <time>2020-03-08T09:20:59Z</time>
      </trkpt>
      <trkpt lat="43.47464" lon="5.44026">
        <ele>205</ele>
        <time>2020-03-08T09:21:11Z</time>
      </trkpt>
      <trkpt lat="43.47462" lon="5.44025">
        <ele>206</ele>
        <time>2020-03-08T09:21:20Z</time>
      </trkpt>
      <trkpt lat="43.47461" lon="5.44025">
        <ele>209</ele>
        <time>2020-03-08T09:21:31Z</time>
      </trkpt>
      <trkpt lat="43.4746" lon="5.44024">
        <ele>210</ele>
        <time>2020-03-08T09:22:11Z</time>
      </trkpt>
      <trkpt lat="43.47461" lon="5.44026">
        <ele>209</ele>
        <time>2020-03-08T09:22:22Z</time>
      </trkpt>
      <trkpt lat="43.47462" lon="5.44027">
        <ele>206</ele>
        <time>2020-03-08T09:22:40Z</time>
      </trkpt>
      <trkpt lat="43.47465" lon="5.44025">
        <ele>206</ele>
        <time>2020-03-08T09:22:56Z</time>
      </trkpt>
      <trkpt lat="43.47469" lon="5.4402">
        <ele>206</ele>
        <time>2020-03-08T09:23:06Z</time>
      </trkpt>
      <trkpt lat="43.47472" lon="5.44012">
        <ele>205</ele>
        <time>2020-03-08T09:23:16Z</time>
      </trkpt>
      <trkpt lat="43.47473" lon="5.44002">
        <ele>203</ele>
        <time>2020-03-08T09:23:25Z</time>
      </trkpt>
      <trkpt lat="43.47478" lon="5.43993">
        <ele>202</ele>
        <time>2020-03-08T09:23:35Z</time>
      </trkpt>
      <trkpt lat="43.47478" lon="5.43986">
        <ele>202</ele>
        <time>2020-03-08T09:23:44Z</time>
      </trkpt>
      <trkpt lat="43.47483" lon="5.43979">
        <ele>202</ele>
        <time>2020-03-08T09:23:53Z</time>
      </trkpt>
      <trkpt lat="43.47488" lon="5.43968">
        <ele>202</ele>
        <time>2020-03-08T09:24:03Z</time>
      </trkpt>
      <trkpt lat="43.47491" lon="5.43961">
        <ele>202</ele>
        <time>2020-03-08T09:24:12Z</time>
      </trkpt>
      <trkpt lat="43.47497" lon="5.43955">
        <ele>205</ele>
        <time>2020-03-08T09:24:21Z</time>
      </trkpt>
      <trkpt lat="43.47501" lon="5.43947">
        <ele>208</ele>
        <time>2020-03-08T09:24:32Z</time>
      </trkpt>
      <trkpt lat="43.47506" lon="5.43946">
        <ele>209</ele>
        <time>2020-03-08T09:24:43Z</time>
      </trkpt>
      <trkpt lat="43.47512" lon="5.43944">
        <ele>204</ele>
        <time>2020-03-08T09:24:55Z</time>
      </trkpt>
      <trkpt lat="43.47511" lon="5.4394">
        <ele>201</ele>
        <time>2020-03-08T09:25:07Z</time>
      </trkpt>
      <trkpt lat="43.47513" lon="5.43942">
        <ele>203</ele>
        <time>2020-03-08T09:25:18Z</time>
      </trkpt>
      <trkpt lat="43.47512" lon="5.43938">
        <ele>204</ele>
        <time>2020-03-08T09:25:33Z</time>
      </trkpt>
      <trkpt lat="43.47515" lon="5.43941">
        <ele>204</ele>
        <time>2020-03-08T09:25:42Z</time>
      </trkpt>
      <trkpt lat="43.47522" lon="5.43944">
        <ele>208</ele>
        <time>2020-03-08T09:25:54Z</time>
      </trkpt>
      <trkpt lat="43.47528" lon="5.43941">
        <ele>215</ele>
        <time>2020-03-08T09:26:05Z</time>
      </trkpt>
      <trkpt lat="43.47526" lon="5.4394">
        <ele>216</ele>
        <time>2020-03-08T09:26:14Z</time>
      </trkpt>
      <trkpt lat="43.47525" lon="5.4393">
        <ele>216</ele>
        <time>2020-03-08T09:26:23Z</time>
      </trkpt>
      <trkpt lat="43.47527" lon="5.43916">
        <ele>216</ele>
        <time>2020-03-08T09:26:32Z</time>
      </trkpt>
      <trkpt lat="43.47524" lon="5.43904">
        <ele>216</ele>
        <time>2020-03-08T09:26:42Z</time>
      </trkpt>
      <trkpt lat="43.47525" lon="5.43891">
        <ele>213</ele>
        <time>2020-03-08T09:26:51Z</time>
      </trkpt>
      <trkpt lat="43.47522" lon="5.43876">
        <ele>210</ele>
        <time>2020-03-08T09:27:00Z</time>
      </trkpt>
      <trkpt lat="43.47523" lon="5.43864">
        <ele>204</ele>
        <time>2020-03-08T09:27:10Z</time>
      </trkpt>
      <trkpt lat="43.47522" lon="5.43852">
        <ele>203</ele>
        <time>2020-03-08T09:27:19Z</time>
      </trkpt>
      <trkpt lat="43.47514" lon="5.43841">
        <ele>203</ele>
        <time>2020-03-08T09:27:30Z</time>
      </trkpt>
      <trkpt lat="43.47514" lon="5.4383">
        <ele>203</ele>
        <time>2020-03-08T09:27:39Z</time>
      </trkpt>
      <trkpt lat="43.47514" lon="5.4382">
        <ele>203</ele>
        <time>2020-03-08T09:27:49Z</time>
      </trkpt>
      <trkpt lat="43.47513" lon="5.4381">
        <ele>203</ele>
        <time>2020-03-08T09:27:59Z</time>
      </trkpt>
      <trkpt lat="43.47509" lon="5.43799">
        <ele>203</ele>
        <time>2020-03-08T09:28:09Z</time>
      </trkpt>
      <trkpt lat="43.47503" lon="5.43789">
        <ele>203</ele>
        <time>2020-03-08T09:28:18Z</time>
      </trkpt>
      <trkpt lat="43.47495" lon="5.4378">
        <ele>199</ele>
        <time>2020-03-08T09:28:28Z</time>
      </trkpt>
      <trkpt lat="43.4749" lon="5.43776">
        <ele>193</ele>
        <time>2020-03-08T09:28:37Z</time>
      </trkpt>
      <trkpt lat="43.47487" lon="5.43766">
        <ele>193</ele>
        <time>2020-03-08T09:28:48Z</time>
      </trkpt>
      <trkpt lat="43.47482" lon="5.4376">
        <ele>193</ele>
        <time>2020-03-08T09:28:58Z</time>
      </trkpt>
      <trkpt lat="43.47484" lon="5.43749">
        <ele>193</ele>
        <time>2020-03-08T09:29:08Z</time>
      </trkpt>
      <trkpt lat="43.47484" lon="5.4374">
        <ele>193</ele>
        <time>2020-03-08T09:29:18Z</time>
      </trkpt>
      <trkpt lat="43.47485" lon="5.43737">
        <ele>190</ele>
        <time>2020-03-08T09:29:29Z</time>
      </trkpt>
      <trkpt lat="43.47487" lon="5.43729">
        <ele>188</ele>
        <time>2020-03-08T09:29:39Z</time>
      </trkpt>
      <trkpt lat="43.47489" lon="5.4372">
        <ele>188</ele>
        <time>2020-03-08T09:29:49Z</time>
      </trkpt>
      <trkpt lat="43.47491" lon="5.4371">
        <ele>187</ele>
        <time>2020-03-08T09:29:59Z</time>
      </trkpt>
      <trkpt lat="43.47493" lon="5.43698">
        <ele>187</ele>
        <time>2020-03-08T09:30:08Z</time>
      </trkpt>
      <trkpt lat="43.47488" lon="5.43686">
        <ele>185</ele>
        <time>2020-03-08T09:30:17Z</time>
      </trkpt>
      <trkpt lat="43.47481" lon="5.43677">
        <ele>182</ele>
        <time>2020-03-08T09:30:28Z</time>
      </trkpt>
      <trkpt lat="43.47473" lon="5.43668">
        <ele>180</ele>
        <time>2020-03-08T09:30:37Z</time>
      </trkpt>
      <trkpt lat="43.47476" lon="5.43659">
        <ele>180</ele>
        <time>2020-03-08T09:30:47Z</time>
      </trkpt>
      <trkpt lat="43.47472" lon="5.43648">
        <ele>179</ele>
        <time>2020-03-08T09:30:56Z</time>
      </trkpt>
      <trkpt lat="43.47468" lon="5.43636">
        <ele>179</ele>
        <time>2020-03-08T09:31:05Z</time>
      </trkpt>
      <trkpt lat="43.47462" lon="5.43627">
        <ele>176</ele>
        <time>2020-03-08T09:31:15Z</time>
      </trkpt>
      <trkpt lat="43.47458" lon="5.43624">
        <ele>176</ele>
        <time>2020-03-08T09:31:24Z</time>
      </trkpt>
      <trkpt lat="43.47451" lon="5.43619">
        <ele>176</ele>
        <time>2020-03-08T09:31:33Z</time>
      </trkpt>
      <trkpt lat="43.47446" lon="5.43615">
        <ele>176</ele>
        <time>2020-03-08T09:31:44Z</time>
      </trkpt>
      <trkpt lat="43.47438" lon="5.43615">
        <ele>173</ele>
        <time>2020-03-08T09:31:53Z</time>
      </trkpt>
      <trkpt lat="43.47436" lon="5.43615">
        <ele>172</ele>
        <time>2020-03-08T09:32:04Z</time>
      </trkpt>
      <trkpt lat="43.47431" lon="5.43608">
        <ele>170</ele>
        <time>2020-03-08T09:32:14Z</time>
      </trkpt>
      <trkpt lat="43.47429" lon="5.43601">
        <ele>170</ele>
        <time>2020-03-08T09:32:24Z</time>
      </trkpt>
      <trkpt lat="43.4743" lon="5.43596">
        <ele>170</ele>
        <time>2020-03-08T09:32:35Z</time>
      </trkpt>
      <trkpt lat="43.4743" lon="5.436">
        <ele>170</ele>
        <time>2020-03-08T09:32:48Z</time>
      </trkpt>
      <trkpt lat="43.47429" lon="5.43599">
        <ele>170</ele>
        <time>2020-03-08T09:32:59Z</time>
      </trkpt>
      <trkpt lat="43.47427" lon="5.43599">
        <ele>170</ele>
        <time>2020-03-08T09:33:08Z</time>
      </trkpt>
      <trkpt lat="43.47428" lon="5.43592">
        <ele>170</ele>
        <time>2020-03-08T09:33:17Z</time>
      </trkpt>
      <trkpt lat="43.47431" lon="5.43581">
        <ele>170</ele>
        <time>2020-03-08T09:33:27Z</time>
      </trkpt>
      <trkpt lat="43.47436" lon="5.43572">
        <ele>170</ele>
        <time>2020-03-08T09:33:36Z</time>
      </trkpt>
      <trkpt lat="43.47436" lon="5.43571">
        <ele>173</ele>
        <time>2020-03-08T09:33:47Z</time>
      </trkpt>
      <trkpt lat="43.47436" lon="5.43577">
        <ele>174</ele>
        <time>2020-03-08T09:33:57Z</time>
      </trkpt>
      <trkpt lat="43.47435" lon="5.43587">
        <ele>171</ele>
        <time>2020-03-08T09:34:07Z</time>
      </trkpt>
      <trkpt lat="43.47433" lon="5.43589">
        <ele>170</ele>
        <time>2020-03-08T09:34:20Z</time>
      </trkpt>
      <trkpt lat="43.47431" lon="5.436">
        <ele>176</ele>
        <time>2020-03-08T09:34:30Z</time>
      </trkpt>
      <trkpt lat="43.47428" lon="5.43604">
        <ele>174</ele>
        <time>2020-03-08T09:34:42Z</time>
      </trkpt>
      <trkpt lat="43.47424" lon="5.43605">
        <ele>174</ele>
        <time>2020-03-08T09:34:52Z</time>
      </trkpt>
      <trkpt lat="43.4743" lon="5.43608">
        <ele>172</ele>
        <time>2020-03-08T09:35:02Z</time>
      </trkpt>
      <trkpt lat="43.47438" lon="5.4361">
        <ele>172</ele>
        <time>2020-03-08T09:35:19Z</time>
      </trkpt>
      <trkpt lat="43.47442" lon="5.43612">
        <ele>177</ele>
        <time>2020-03-08T09:35:29Z</time>
      </trkpt>
      <trkpt lat="43.47442" lon="5.43607">
        <ele>177</ele>
        <time>2020-03-08T09:35:38Z</time>
      </trkpt>
      <trkpt lat="43.47447" lon="5.43598">
        <ele>177</ele>
        <time>2020-03-08T09:35:48Z</time>
      </trkpt>
      <trkpt lat="43.47451" lon="5.43592">
        <ele>177</ele>
        <time>2020-03-08T09:35:57Z</time>
      </trkpt>
      <trkpt lat="43.47456" lon="5.43581">
        <ele>178</ele>
        <time>2020-03-08T09:36:06Z</time>
      </trkpt>
      <trkpt lat="43.47464" lon="5.43572">
        <ele>179</ele>
        <time>2020-03-08T09:36:17Z</time>
      </trkpt>
      <trkpt lat="43.4747" lon="5.43567">
        <ele>175</ele>
        <time>2020-03-08T09:36:31Z</time>
      </trkpt>
      <trkpt lat="43.47476" lon="5.4356">
        <ele>175</ele>
        <time>2020-03-08T09:36:40Z</time>
      </trkpt>
      <trkpt lat="43.47483" lon="5.43556">
        <ele>177</ele>
        <time>2020-03-08T09:36:49Z</time>
      </trkpt>
      <trkpt lat="43.47485" lon="5.43549">
        <ele>177</ele>
        <time>2020-03-08T09:36:58Z</time>
      </trkpt>
      <trkpt lat="43.47487" lon="5.4354">
        <ele>176</ele>
        <time>2020-03-08T09:37:08Z</time>
      </trkpt>
      <trkpt lat="43.47487" lon="5.43527">
        <ele>175</ele>
        <time>2020-03-08T09:37:18Z</time>
      </trkpt>
      <trkpt lat="43.4749" lon="5.43519">
        <ele>173</ele>
        <time>2020-03-08T09:37:27Z</time>
      </trkpt>
      <trkpt lat="43.47492" lon="5.43506">
        <ele>173</ele>
        <time>2020-03-08T09:37:36Z</time>
      </trkpt>
      <trkpt lat="43.47491" lon="5.43494">
        <ele>173</ele>
        <time>2020-03-08T09:37:45Z</time>
      </trkpt>
      <trkpt lat="43.47489" lon="5.43481">
        <ele>173</ele>
        <time>2020-03-08T09:37:55Z</time>
      </trkpt>
      <trkpt lat="43.47488" lon="5.43471">
        <ele>173</ele>
        <time>2020-03-08T09:38:04Z</time>
      </trkpt>
      <trkpt lat="43.4749" lon="5.43457">
        <ele>173</ele>
        <time>2020-03-08T09:38:13Z</time>
      </trkpt>
      <trkpt lat="43.4749" lon="5.43442">
        <ele>173</ele>
        <time>2020-03-08T09:38:22Z</time>
      </trkpt>
      <trkpt lat="43.4749" lon="5.43431">
        <ele>173</ele>
        <time>2020-03-08T09:38:31Z</time>
      </trkpt>
      <trkpt lat="43.47491" lon="5.43416">
        <ele>173</ele>
        <time>2020-03-08T09:38:40Z</time>
      </trkpt>
      <trkpt lat="43.47491" lon="5.43403">
        <ele>171</ele>
        <time>2020-03-08T09:38:49Z</time>
      </trkpt>
      <trkpt lat="43.47491" lon="5.43388">
        <ele>169</ele>
        <time>2020-03-08T09:38:58Z</time>
      </trkpt>
      <trkpt lat="43.47494" lon="5.43373">
        <ele>166</ele>
        <time>2020-03-08T09:39:08Z</time>
      </trkpt>
      <trkpt lat="43.47489" lon="5.4336">
        <ele>165</ele>
        <time>2020-03-08T09:39:17Z</time>
      </trkpt>
      <trkpt lat="43.47491" lon="5.43343">
        <ele>165</ele>
        <time>2020-03-08T09:39:27Z</time>
      </trkpt>
      <trkpt lat="43.47492" lon="5.43329">
        <ele>165</ele>
        <time>2020-03-08T09:39:37Z</time>
      </trkpt>
      <trkpt lat="43.47492" lon="5.43323">
        <ele>165</ele>
        <time>2020-03-08T09:39:46Z</time>
      </trkpt>
      <trkpt lat="43.47495" lon="5.43313">
        <ele>165</ele>
        <time>2020-03-08T09:39:56Z</time>
      </trkpt>
      <trkpt lat="43.47502" lon="5.43304">
        <ele>165</ele>
        <time>2020-03-08T09:40:06Z</time>
      </trkpt>
      <trkpt lat="43.47508" lon="5.43297">
        <ele>165</ele>
        <time>2020-03-08T09:40:16Z</time>
      </trkpt>
      <trkpt lat="43.47512" lon="5.43293">
        <ele>165</ele>
        <time>2020-03-08T09:40:25Z</time>
      </trkpt>
      <trkpt lat="43.47518" lon="5.43291">
        <ele>170</ele>
        <time>2020-03-08T09:40:34Z</time>
      </trkpt>
      <trkpt lat="43.47524" lon="5.43289">
        <ele>173</ele>
        <time>2020-03-08T09:40:43Z</time>
      </trkpt>
      <trkpt lat="43.47528" lon="5.43282">
        <ele>175</ele>
        <time>2020-03-08T09:40:52Z</time>
      </trkpt>
      <trkpt lat="43.47533" lon="5.43275">
        <ele>176</ele>
        <time>2020-03-08T09:41:01Z</time>
      </trkpt>
      <trkpt lat="43.47538" lon="5.43268">
        <ele>178</ele>
        <time>2020-03-08T09:41:10Z</time>
      </trkpt>
      <trkpt lat="43.47545" lon="5.43261">
        <ele>179</ele>
        <time>2020-03-08T09:41:20Z</time>
      </trkpt>
      <trkpt lat="43.47553" lon="5.43252">
        <ele>180</ele>
        <time>2020-03-08T09:41:30Z</time>
      </trkpt>
      <trkpt lat="43.47559" lon="5.43243">
        <ele>180</ele>
        <time>2020-03-08T09:41:40Z</time>
      </trkpt>
      <trkpt lat="43.47564" lon="5.43236">
        <ele>180</ele>
        <time>2020-03-08T09:41:49Z</time>
      </trkpt>
      <trkpt lat="43.47572" lon="5.43228">
        <ele>180</ele>
        <time>2020-03-08T09:41:58Z</time>
      </trkpt>
      <trkpt lat="43.47579" lon="5.43224">
        <ele>177</ele>
        <time>2020-03-08T09:42:08Z</time>
      </trkpt>
      <trkpt lat="43.47582" lon="5.43223">
        <ele>177</ele>
        <time>2020-03-08T09:42:19Z</time>
      </trkpt>
      <trkpt lat="43.47589" lon="5.43221">
        <ele>177</ele>
        <time>2020-03-08T09:42:28Z</time>
      </trkpt>
      <trkpt lat="43.476" lon="5.43221">
        <ele>177</ele>
        <time>2020-03-08T09:42:38Z</time>
      </trkpt>
      <trkpt lat="43.47608" lon="5.43221">
        <ele>177</ele>
        <time>2020-03-08T09:42:48Z</time>
      </trkpt>
      <trkpt lat="43.47616" lon="5.4322">
        <ele>177</ele>
        <time>2020-03-08T09:42:57Z</time>
      </trkpt>
      <trkpt lat="43.47624" lon="5.4322">
        <ele>177</ele>
        <time>2020-03-08T09:43:07Z</time>
      </trkpt>
      <trkpt lat="43.47623" lon="5.43222">
        <ele>177</ele>
        <time>2020-03-08T09:43:17Z</time>
      </trkpt>
      <trkpt lat="43.47625" lon="5.43221">
        <ele>176</ele>
        <time>2020-03-08T09:43:26Z</time>
      </trkpt>
      <trkpt lat="43.47624" lon="5.4322">
        <ele>176</ele>
        <time>2020-03-08T09:43:40Z</time>
      </trkpt>
      <trkpt lat="43.47624" lon="5.4322">
        <ele>176</ele>
        <time>2020-03-08T09:44:06Z</time>
      </trkpt>
      <trkpt lat="43.47625" lon="5.43222">
        <ele>176</ele>
        <time>2020-03-08T09:44:15Z</time>
      </trkpt>
      <trkpt lat="43.47622" lon="5.43225">
        <ele>169</ele>
        <time>2020-03-08T09:44:28Z</time>
      </trkpt>
      <trkpt lat="43.47627" lon="5.43223">
        <ele>168</ele>
        <time>2020-03-08T09:44:42Z</time>
      </trkpt>
      <trkpt lat="43.47633" lon="5.43223">
        <ele>168</ele>
        <time>2020-03-08T09:44:51Z</time>
      </trkpt>
      <trkpt lat="43.47642" lon="5.43224">
        <ele>168</ele>
        <time>2020-03-08T09:45:01Z</time>
      </trkpt>
      <trkpt lat="43.47649" lon="5.43227">
        <ele>173</ele>
        <time>2020-03-08T09:45:13Z</time>
      </trkpt>
      <trkpt lat="43.47655" lon="5.43235">
        <ele>174</ele>
        <time>2020-03-08T09:45:22Z</time>
      </trkpt>
      <trkpt lat="43.47665" lon="5.43236">
        <ele>175</ele>
        <time>2020-03-08T09:45:32Z</time>
      </trkpt>
      <trkpt lat="43.47672" lon="5.43236">
        <ele>177</ele>
        <time>2020-03-08T09:45:41Z</time>
      </trkpt>
      <trkpt lat="43.47681" lon="5.43239">
        <ele>180</ele>
        <time>2020-03-08T09:45:51Z</time>
      </trkpt>
      <trkpt lat="43.47689" lon="5.43239">
        <ele>182</ele>
        <time>2020-03-08T09:46:01Z</time>
      </trkpt>
      <trkpt lat="43.47698" lon="5.43241">
        <ele>183</ele>
        <time>2020-03-08T09:46:11Z</time>
      </trkpt>
      <trkpt lat="43.47707" lon="5.43242">
        <ele>184</ele>
        <time>2020-03-08T09:46:21Z</time>
      </trkpt>
      <trkpt lat="43.47716" lon="5.43245">
        <ele>184</ele>
        <time>2020-03-08T09:46:31Z</time>
      </trkpt>
      <trkpt lat="43.47725" lon="5.43248">
        <ele>186</ele>
        <time>2020-03-08T09:46:41Z</time>
      </trkpt>
      <trkpt lat="43.47731" lon="5.43253">
        <ele>186</ele>
        <time>2020-03-08T09:46:50Z</time>
      </trkpt>
      <trkpt lat="43.4774" lon="5.43256">
        <ele>186</ele>
        <time>2020-03-08T09:47:00Z</time>
      </trkpt>
      <trkpt lat="43.47749" lon="5.43257">
        <ele>186</ele>
        <time>2020-03-08T09:47:10Z</time>
      </trkpt>
      <trkpt lat="43.47757" lon="5.43256">
        <ele>189</ele>
        <time>2020-03-08T09:47:20Z</time>
      </trkpt>
      <trkpt lat="43.47761" lon="5.43256">
        <ele>194</ele>
        <time>2020-03-08T09:47:31Z</time>
      </trkpt>
      <trkpt lat="43.47764" lon="5.4326">
        <ele>194</ele>
        <time>2020-03-08T09:47:41Z</time>
      </trkpt>
      <trkpt lat="43.47766" lon="5.43268">
        <ele>194</ele>
        <time>2020-03-08T09:47:51Z</time>
      </trkpt>
      <trkpt lat="43.47765" lon="5.43275">
        <ele>195</ele>
        <time>2020-03-08T09:48:00Z</time>
      </trkpt>
      <trkpt lat="43.47764" lon="5.4328">
        <ele>195</ele>
        <time>2020-03-08T09:48:09Z</time>
      </trkpt>
      <trkpt lat="43.47765" lon="5.43287">
        <ele>198</ele>
        <time>2020-03-08T09:48:18Z</time>
      </trkpt>
      <trkpt lat="43.47765" lon="5.43295">
        <ele>198</ele>
        <time>2020-03-08T09:48:29Z</time>
      </trkpt>
      <trkpt lat="43.47758" lon="5.43297">
        <ele>199</ele>
        <time>2020-03-08T09:48:38Z</time>
      </trkpt>
      <trkpt lat="43.47754" lon="5.43301">
        <ele>199</ele>
        <time>2020-03-08T09:48:48Z</time>
      </trkpt>
      <trkpt lat="43.47747" lon="5.43307">
        <ele>199</ele>
        <time>2020-03-08T09:48:58Z</time>
      </trkpt>
      <trkpt lat="43.47744" lon="5.43314">
        <ele>202</ele>
        <time>2020-03-08T09:49:07Z</time>
      </trkpt>
      <trkpt lat="43.47742" lon="5.43318">
        <ele>203</ele>
        <time>2020-03-08T09:49:17Z</time>
      </trkpt>
      <trkpt lat="43.47743" lon="5.43324">
        <ele>203</ele>
        <time>2020-03-08T09:49:32Z</time>
      </trkpt>
      <trkpt lat="43.47745" lon="5.43328">
        <ele>206</ele>
        <time>2020-03-08T09:49:42Z</time>
      </trkpt>
      <trkpt lat="43.47746" lon="5.43334">
        <ele>207</ele>
        <time>2020-03-08T09:49:52Z</time>
      </trkpt>
      <trkpt lat="43.47747" lon="5.4334">
        <ele>209</ele>
        <time>2020-03-08T09:50:02Z</time>
      </trkpt>
      <trkpt lat="43.47747" lon="5.43346">
        <ele>213</ele>
        <time>2020-03-08T09:50:13Z</time>
      </trkpt>
      <trkpt lat="43.47748" lon="5.43354">
        <ele>214</ele>
        <time>2020-03-08T09:50:22Z</time>
      </trkpt>
      <trkpt lat="43.4775" lon="5.43359">
        <ele>214</ele>
        <time>2020-03-08T09:50:34Z</time>
      </trkpt>
      <trkpt lat="43.4775" lon="5.43363">
        <ele>218</ele>
        <time>2020-03-08T09:50:46Z</time>
      </trkpt>
      <trkpt lat="43.47752" lon="5.43367">
        <ele>229</ele>
        <time>2020-03-08T09:50:59Z</time>
      </trkpt>
      <trkpt lat="43.47749" lon="5.43363">
        <ele>233</ele>
        <time>2020-03-08T09:51:10Z</time>
      </trkpt>
      <trkpt lat="43.4775" lon="5.43366">
        <ele>236</ele>
        <time>2020-03-08T09:51:27Z</time>
      </trkpt>
      <trkpt lat="43.47752" lon="5.43367">
        <ele>235</ele>
        <time>2020-03-08T09:51:46Z</time>
      </trkpt>
      <trkpt lat="43.47752" lon="5.43365">
        <ele>233</ele>
        <time>2020-03-08T09:52:11Z</time>
      </trkpt>
      <trkpt lat="43.4775" lon="5.43366">
        <ele>232</ele>
        <time>2020-03-08T09:52:23Z</time>
      </trkpt>
      <trkpt lat="43.47748" lon="5.43368">
        <ele>232</ele>
        <time>2020-03-08T09:52:34Z</time>
      </trkpt>
      <trkpt lat="43.47748" lon="5.43368">
        <ele>238</ele>
        <time>2020-03-08T09:52:43Z</time>
      </trkpt>
      <trkpt lat="43.47746" lon="5.43366">
        <ele>234</ele>
        <time>2020-03-08T09:52:52Z</time>
      </trkpt>
      <trkpt lat="43.47747" lon="5.4337">
        <ele>230</ele>
        <time>2020-03-08T09:53:04Z</time>
      </trkpt>
      <trkpt lat="43.47753" lon="5.43379">
        <ele>225</ele>
        <time>2020-03-08T09:53:15Z</time>
      </trkpt>
      <trkpt lat="43.47755" lon="5.43384">
        <ele>225</ele>
        <time>2020-03-08T09:53:25Z</time>
      </trkpt>
      <trkpt lat="43.47756" lon="5.43392">
        <ele>225</ele>
        <time>2020-03-08T09:53:34Z</time>
      </trkpt>
      <trkpt lat="43.47755" lon="5.434">
        <ele>226</ele>
        <time>2020-03-08T09:53:44Z</time>
      </trkpt>
      <trkpt lat="43.47756" lon="5.43408">
        <ele>229</ele>
        <time>2020-03-08T09:53:55Z</time>
      </trkpt>
      <trkpt lat="43.47757" lon="5.43415">
        <ele>232</ele>
        <time>2020-03-08T09:54:04Z</time>
      </trkpt>
      <trkpt lat="43.47758" lon="5.43423">
        <ele>236</ele>
        <time>2020-03-08T09:54:15Z</time>
      </trkpt>
      <trkpt lat="43.4776" lon="5.43431">
        <ele>236</ele>
        <time>2020-03-08T09:54:25Z</time>
      </trkpt>
      <trkpt lat="43.47762" lon="5.4344">
        <ele>236</ele>
        <time>2020-03-08T09:54:34Z</time>
      </trkpt>
      <trkpt lat="43.47762" lon="5.43449">
        <ele>238</ele>
        <time>2020-03-08T09:54:45Z</time>
      </trkpt>
      <trkpt lat="43.47763" lon="5.43458">
        <ele>241</ele>
        <time>2020-03-08T09:54:55Z</time>
      </trkpt>
      <trkpt lat="43.47762" lon="5.43464">
        <ele>243</ele>
        <time>2020-03-08T09:55:04Z</time>
      </trkpt>
      <trkpt lat="43.47762" lon="5.43474">
        <ele>243</ele>
        <time>2020-03-08T09:55:13Z</time>
      </trkpt>
      <trkpt lat="43.47762" lon="5.43486">
        <ele>244</ele>
        <time>2020-03-08T09:55:27Z</time>
      </trkpt>
      <trkpt lat="43.4776" lon="5.43494">
        <ele>245</ele>
        <time>2020-03-08T09:55:37Z</time>
      </trkpt>
      <trkpt lat="43.47757" lon="5.43503">
        <ele>245</ele>
        <time>2020-03-08T09:55:48Z</time>
      </trkpt>
      <trkpt lat="43.47753" lon="5.43513">
        <ele>244</ele>
        <time>2020-03-08T09:55:59Z</time>
      </trkpt>
      <trkpt lat="43.4776" lon="5.43525">
        <ele>245</ele>
        <time>2020-03-08T09:56:09Z</time>
      </trkpt>
      <trkpt lat="43.47759" lon="5.43536">
        <ele>246</ele>
        <time>2020-03-08T09:56:19Z</time>
      </trkpt>
      <trkpt lat="43.47757" lon="5.43544">
        <ele>246</ele>
        <time>2020-03-08T09:56:28Z</time>
      </trkpt>
      <trkpt lat="43.47755" lon="5.4355">
        <ele>247</ele>
        <time>2020-03-08T09:56:38Z</time>
      </trkpt>
      <trkpt lat="43.47755" lon="5.43557">
        <ele>247</ele>
        <time>2020-03-08T09:56:49Z</time>
      </trkpt>
      <trkpt lat="43.47754" lon="5.43562">
        <ele>250</ele>
        <time>2020-03-08T09:57:02Z</time>
      </trkpt>
      <trkpt lat="43.47757" lon="5.43568">
        <ele>255</ele>
        <time>2020-03-08T09:57:13Z</time>
      </trkpt>
      <trkpt lat="43.47757" lon="5.43577">
        <ele>256</ele>
        <time>2020-03-08T09:57:22Z</time>
      </trkpt>
      <trkpt lat="43.47755" lon="5.43586">
        <ele>256</ele>
        <time>2020-03-08T09:57:31Z</time>
      </trkpt>
      <trkpt lat="43.47755" lon="5.43592">
        <ele>257</ele>
        <time>2020-03-08T09:57:40Z</time>
      </trkpt>
      <trkpt lat="43.47756" lon="5.43599">
        <ele>260</ele>
        <time>2020-03-08T09:57:50Z</time>
      </trkpt>
      <trkpt lat="43.47753" lon="5.43605">
        <ele>260</ele>
        <time>2020-03-08T09:57:59Z</time>
      </trkpt>
      <trkpt lat="43.47752" lon="5.43616">
        <ele>263</ele>
        <time>2020-03-08T09:58:09Z</time>
      </trkpt>
      <trkpt lat="43.47752" lon="5.43628">
        <ele>267</ele>
        <time>2020-03-08T09:58:22Z</time>
      </trkpt>
      <trkpt lat="43.47749" lon="5.43636">
        <ele>268</ele>
        <time>2020-03-08T09:58:32Z</time>
      </trkpt>
      <trkpt lat="43.4775" lon="5.43644">
        <ele>269</ele>
        <time>2020-03-08T09:58:43Z</time>
      </trkpt>
      <trkpt lat="43.4775" lon="5.43654">
        <ele>269</ele>
        <time>2020-03-08T09:58:53Z</time>
      </trkpt>
      <trkpt lat="43.47751" lon="5.43662">
        <ele>270</ele>
        <time>2020-03-08T09:59:02Z</time>
      </trkpt>
      <trkpt lat="43.47751" lon="5.43671">
        <ele>270</ele>
        <time>2020-03-08T09:59:13Z</time>
      </trkpt>
      <trkpt lat="43.47752" lon="5.43681">
        <ele>270</ele>
        <time>2020-03-08T09:59:22Z</time>
      </trkpt>
      <trkpt lat="43.47749" lon="5.43689">
        <ele>271</ele>
        <time>2020-03-08T09:59:32Z</time>
      </trkpt>
      <trkpt lat="43.47748" lon="5.43699">
        <ele>271</ele>
        <time>2020-03-08T09:59:42Z</time>
      </trkpt>
      <trkpt lat="43.47746" lon="5.43709">
        <ele>274</ele>
        <time>2020-03-08T09:59:54Z</time>
      </trkpt>
      <trkpt lat="43.47747" lon="5.4372">
        <ele>276</ele>
        <time>2020-03-08T10:00:03Z</time>
      </trkpt>
      <trkpt lat="43.47753" lon="5.43728">
        <ele>278</ele>
        <time>2020-03-08T10:00:13Z</time>
      </trkpt>
      <trkpt lat="43.47761" lon="5.43734">
        <ele>278</ele>
        <time>2020-03-08T10:00:23Z</time>
      </trkpt>
      <trkpt lat="43.47769" lon="5.43741">
        <ele>278</ele>
        <time>2020-03-08T10:00:34Z</time>
      </trkpt>
      <trkpt lat="43.47775" lon="5.43745">
        <ele>278</ele>
        <time>2020-03-08T10:00:43Z</time>
      </trkpt>
      <trkpt lat="43.47782" lon="5.4375">
        <ele>278</ele>
        <time>2020-03-08T10:00:52Z</time>
      </trkpt>
      <trkpt lat="43.47787" lon="5.43751">
        <ele>278</ele>
        <time>2020-03-08T10:01:03Z</time>
      </trkpt>
      <trkpt lat="43.47787" lon="5.4375">
        <ele>278</ele>
        <time>2020-03-08T10:01:25Z</time>
      </trkpt>
      <trkpt lat="43.47785" lon="5.4375">
        <ele>279</ele>
        <time>2020-03-08T10:01:38Z</time>
      </trkpt>
      <trkpt lat="43.47782" lon="5.43749">
        <ele>275</ele>
        <time>2020-03-08T10:01:52Z</time>
      </trkpt>
      <trkpt lat="43.47781" lon="5.43746">
        <ele>276</ele>
        <time>2020-03-08T10:02:03Z</time>
      </trkpt>
      <trkpt lat="43.47787" lon="5.43744">
        <ele>290</ele>
        <time>2020-03-08T10:02:13Z</time>
      </trkpt>
      <trkpt lat="43.47787" lon="5.43748">
        <ele>295</ele>
        <time>2020-03-08T10:02:22Z</time>
      </trkpt>
      <trkpt lat="43.47784" lon="5.43746">
        <ele>291</ele>
        <time>2020-03-08T10:02:32Z</time>
      </trkpt>
      <trkpt lat="43.47781" lon="5.43746">
        <ele>284</ele>
        <time>2020-03-08T10:02:43Z</time>
      </trkpt>
      <trkpt lat="43.47784" lon="5.43753">
        <ele>284</ele>
        <time>2020-03-08T10:03:00Z</time>
      </trkpt>
      <trkpt lat="43.47785" lon="5.4375">
        <ele>284</ele>
        <time>2020-03-08T10:03:10Z</time>
      </trkpt>
      <trkpt lat="43.47785" lon="5.43749">
        <ele>285</ele>
        <time>2020-03-08T10:03:21Z</time>
      </trkpt>
      <trkpt lat="43.47783" lon="5.43749">
        <ele>285</ele>
        <time>2020-03-08T10:03:38Z</time>
      </trkpt>
      <trkpt lat="43.47784" lon="5.43749">
        <ele>284</ele>
        <time>2020-03-08T10:03:53Z</time>
      </trkpt>
      <trkpt lat="43.47786" lon="5.43749">
        <ele>284</ele>
        <time>2020-03-08T10:04:25Z</time>
      </trkpt>
      <trkpt lat="43.47789" lon="5.43751">
        <ele>284</ele>
        <time>2020-03-08T10:04:36Z</time>
      </trkpt>
      <trkpt lat="43.47789" lon="5.4375">
        <ele>284</ele>
        <time>2020-03-08T10:04:59Z</time>
      </trkpt>
      <trkpt lat="43.47789" lon="5.43752">
        <ele>284</ele>
        <time>2020-03-08T10:05:22Z</time>
      </trkpt>
      <trkpt lat="43.47797" lon="5.43759">
        <ele>284</ele>
        <time>2020-03-08T10:05:32Z</time>
      </trkpt>
      <trkpt lat="43.47806" lon="5.43766">
        <ele>286</ele>
        <time>2020-03-08T10:05:42Z</time>
      </trkpt>
      <trkpt lat="43.47813" lon="5.43772">
        <ele>286</ele>
        <time>2020-03-08T10:05:52Z</time>
      </trkpt>
      <trkpt lat="43.47821" lon="5.43779">
        <ele>287</ele>
        <time>2020-03-08T10:06:02Z</time>
      </trkpt>
      <trkpt lat="43.47826" lon="5.43785">
        <ele>287</ele>
        <time>2020-03-08T10:06:14Z</time>
      </trkpt>
      <trkpt lat="43.47836" lon="5.4379">
        <ele>291</ele>
        <time>2020-03-08T10:06:24Z</time>
      </trkpt>
      <trkpt lat="43.47844" lon="5.43795">
        <ele>292</ele>
        <time>2020-03-08T10:06:37Z</time>
      </trkpt>
      <trkpt lat="43.4785" lon="5.43792">
        <ele>292</ele>
        <time>2020-03-08T10:06:47Z</time>
      </trkpt>
      <trkpt lat="43.47854" lon="5.43786">
        <ele>292</ele>
        <time>2020-03-08T10:06:56Z</time>
      </trkpt>
      <trkpt lat="43.47855" lon="5.43784">
        <ele>292</ele>
        <time>2020-03-08T10:07:08Z</time>
      </trkpt>
      <trkpt lat="43.47857" lon="5.43778">
        <ele>292</ele>
        <time>2020-03-08T10:07:17Z</time>
      </trkpt>
      <trkpt lat="43.47853" lon="5.43781">
        <ele>291</ele>
        <time>2020-03-08T10:07:26Z</time>
      </trkpt>
      <trkpt lat="43.47848" lon="5.43789">
        <ele>291</ele>
        <time>2020-03-08T10:07:37Z</time>
      </trkpt>
      <trkpt lat="43.47847" lon="5.43798">
        <ele>291</ele>
        <time>2020-03-08T10:07:48Z</time>
      </trkpt>
      <trkpt lat="43.47848" lon="5.43809">
        <ele>290</ele>
        <time>2020-03-08T10:07:58Z</time>
      </trkpt>
      <trkpt lat="43.47848" lon="5.4382">
        <ele>290</ele>
        <time>2020-03-08T10:08:07Z</time>
      </trkpt>
      <trkpt lat="43.47848" lon="5.43832">
        <ele>290</ele>
        <time>2020-03-08T10:08:16Z</time>
      </trkpt>
      <trkpt lat="43.47848" lon="5.43845">
        <ele>290</ele>
        <time>2020-03-08T10:08:26Z</time>
      </trkpt>
      <trkpt lat="43.47849" lon="5.43848">
        <ele>290</ele>
        <time>2020-03-08T10:08:44Z</time>
      </trkpt>
      <trkpt lat="43.47841" lon="5.43855">
        <ele>290</ele>
        <time>2020-03-08T10:08:54Z</time>
      </trkpt>
      <trkpt lat="43.47839" lon="5.43854">
        <ele>290</ele>
        <time>2020-03-08T10:09:07Z</time>
      </trkpt>
      <trkpt lat="43.47836" lon="5.43853">
        <ele>286</ele>
        <time>2020-03-08T10:09:31Z</time>
      </trkpt>
      <trkpt lat="43.47834" lon="5.43854">
        <ele>286</ele>
        <time>2020-03-08T10:09:52Z</time>
      </trkpt>
      <trkpt lat="43.47834" lon="5.43855">
        <ele>286</ele>
        <time>2020-03-08T10:10:04Z</time>
      </trkpt>
      <trkpt lat="43.47836" lon="5.43856">
        <ele>286</ele>
        <time>2020-03-08T10:10:13Z</time>
      </trkpt>
      <trkpt lat="43.47837" lon="5.43858">
        <ele>286</ele>
        <time>2020-03-08T10:10:25Z</time>
      </trkpt>
      <trkpt lat="43.47842" lon="5.4386">
        <ele>286</ele>
        <time>2020-03-08T10:10:34Z</time>
      </trkpt>
      <trkpt lat="43.47847" lon="5.43861">
        <ele>286</ele>
        <time>2020-03-08T10:10:45Z</time>
      </trkpt>
      <trkpt lat="43.47847" lon="5.43861">
        <ele>286</ele>
        <time>2020-03-08T10:10:57Z</time>
      </trkpt>
      <trkpt lat="43.47845" lon="5.43869">
        <ele>286</ele>
        <time>2020-03-08T10:11:06Z</time>
      </trkpt>
      <trkpt lat="43.47844" lon="5.4388">
        <ele>286</ele>
        <time>2020-03-08T10:11:16Z</time>
      </trkpt>
      <trkpt lat="43.47843" lon="5.43893">
        <ele>286</ele>
        <time>2020-03-08T10:11:26Z</time>
      </trkpt>
      <trkpt lat="43.47842" lon="5.43906">
        <ele>286</ele>
        <time>2020-03-08T10:11:36Z</time>
      </trkpt>
      <trkpt lat="43.4784" lon="5.43918">
        <ele>286</ele>
        <time>2020-03-08T10:11:46Z</time>
      </trkpt>
      <trkpt lat="43.4784" lon="5.4393">
        <ele>286</ele>
        <time>2020-03-08T10:11:56Z</time>
      </trkpt>
      <trkpt lat="43.47842" lon="5.43933">
        <ele>286</ele>
        <time>2020-03-08T10:12:09Z</time>
      </trkpt>
      <trkpt lat="43.47841" lon="5.43935">
        <ele>286</ele>
        <time>2020-03-08T10:12:22Z</time>
      </trkpt>
      <trkpt lat="43.4784" lon="5.43936">
        <ele>286</ele>
        <time>2020-03-08T10:12:31Z</time>
      </trkpt>
      <trkpt lat="43.47839" lon="5.43945">
        <ele>286</ele>
        <time>2020-03-08T10:12:40Z</time>
      </trkpt>
      <trkpt lat="43.47836" lon="5.43957">
        <ele>286</ele>
        <time>2020-03-08T10:12:50Z</time>
      </trkpt>
      <trkpt lat="43.47834" lon="5.43967">
        <ele>286</ele>
        <time>2020-03-08T10:13:00Z</time>
      </trkpt>
      <trkpt lat="43.47832" lon="5.4398">
        <ele>286</ele>
        <time>2020-03-08T10:13:10Z</time>
      </trkpt>
      <trkpt lat="43.47831" lon="5.43991">
        <ele>285</ele>
        <time>2020-03-08T10:13:19Z</time>
      </trkpt>
      <trkpt lat="43.47829" lon="5.44002">
        <ele>285</ele>
        <time>2020-03-08T10:13:28Z</time>
      </trkpt>
      <trkpt lat="43.47828" lon="5.44013">
        <ele>285</ele>
        <time>2020-03-08T10:13:37Z</time>
      </trkpt>
      <trkpt lat="43.47827" lon="5.44023">
        <ele>285</ele>
        <time>2020-03-08T10:13:46Z</time>
      </trkpt>
      <trkpt lat="43.47828" lon="5.44026">
        <ele>285</ele>
        <time>2020-03-08T10:14:00Z</time>
      </trkpt>
      <trkpt lat="43.47826" lon="5.44036">
        <ele>285</ele>
        <time>2020-03-08T10:14:11Z</time>
      </trkpt>
      <trkpt lat="43.47826" lon="5.44049">
        <ele>285</ele>
        <time>2020-03-08T10:14:21Z</time>
      </trkpt>
      <trkpt lat="43.47825" lon="5.4406">
        <ele>285</ele>
        <time>2020-03-08T10:14:31Z</time>
      </trkpt>
      <trkpt lat="43.47825" lon="5.44071">
        <ele>287</ele>
        <time>2020-03-08T10:14:41Z</time>
      </trkpt>
      <trkpt lat="43.47824" lon="5.44082">
        <ele>287</ele>
        <time>2020-03-08T10:14:50Z</time>
      </trkpt>
      <trkpt lat="43.47823" lon="5.44087">
        <ele>287</ele>
        <time>2020-03-08T10:14:59Z</time>
      </trkpt>
      <trkpt lat="43.4782" lon="5.44096">
        <ele>288</ele>
        <time>2020-03-08T10:15:09Z</time>
      </trkpt>
      <trkpt lat="43.47818" lon="5.44108">
        <ele>288</ele>
        <time>2020-03-08T10:15:18Z</time>
      </trkpt>
      <trkpt lat="43.47816" lon="5.44119">
        <ele>288</ele>
        <time>2020-03-08T10:15:27Z</time>
      </trkpt>
      <trkpt lat="43.47816" lon="5.44131">
        <ele>288</ele>
        <time>2020-03-08T10:15:37Z</time>
      </trkpt>
      <trkpt lat="43.47816" lon="5.44136">
        <ele>288</ele>
        <time>2020-03-08T10:15:46Z</time>
      </trkpt>
      <trkpt lat="43.47818" lon="5.4414">
        <ele>288</ele>
        <time>2020-03-08T10:15:55Z</time>
      </trkpt>
      <trkpt lat="43.47816" lon="5.4414">
        <ele>288</ele>
        <time>2020-03-08T10:16:21Z</time>
      </trkpt>
      <trkpt lat="43.47817" lon="5.44138">
        <ele>288</ele>
        <time>2020-03-08T10:16:35Z</time>
      </trkpt>
      <trkpt lat="43.47817" lon="5.44129">
        <ele>288</ele>
        <time>2020-03-08T10:16:44Z</time>
      </trkpt>
      <trkpt lat="43.47818" lon="5.44119">
        <ele>288</ele>
        <time>2020-03-08T10:16:53Z</time>
      </trkpt>
      <trkpt lat="43.4782" lon="5.44108">
        <ele>288</ele>
        <time>2020-03-08T10:17:03Z</time>
      </trkpt>
      <trkpt lat="43.47824" lon="5.44096">
        <ele>288</ele>
        <time>2020-03-08T10:17:13Z</time>
      </trkpt>
      <trkpt lat="43.47825" lon="5.44087">
        <ele>288</ele>
        <time>2020-03-08T10:17:23Z</time>
      </trkpt>
      <trkpt lat="43.47826" lon="5.44075">
        <ele>288</ele>
        <time>2020-03-08T10:17:32Z</time>
      </trkpt>
      <trkpt lat="43.47828" lon="5.44063">
        <ele>288</ele>
        <time>2020-03-08T10:17:42Z</time>
      </trkpt>
      <trkpt lat="43.47828" lon="5.4405">
        <ele>288</ele>
        <time>2020-03-08T10:17:51Z</time>
      </trkpt>
      <trkpt lat="43.47829" lon="5.44037">
        <ele>287</ele>
        <time>2020-03-08T10:18:00Z</time>
      </trkpt>
      <trkpt lat="43.47828" lon="5.44033">
        <ele>285</ele>
        <time>2020-03-08T10:18:09Z</time>
      </trkpt>
      <trkpt lat="43.47828" lon="5.4403">
        <ele>284</ele>
        <time>2020-03-08T10:18:25Z</time>
      </trkpt>
      <trkpt lat="43.47825" lon="5.44029">
        <ele>282</ele>
        <time>2020-03-08T10:18:37Z</time>
      </trkpt>
      <trkpt lat="43.47827" lon="5.4403">
        <ele>282</ele>
        <time>2020-03-08T10:18:51Z</time>
      </trkpt>
      <trkpt lat="43.47828" lon="5.4403">
        <ele>282</ele>
        <time>2020-03-08T10:19:02Z</time>
      </trkpt>
      <trkpt lat="43.47829" lon="5.44029">
        <ele>282</ele>
        <time>2020-03-08T10:19:23Z</time>
      </trkpt>
      <trkpt lat="43.47834" lon="5.4403">
        <ele>282</ele>
        <time>2020-03-08T10:19:32Z</time>
      </trkpt>
      <trkpt lat="43.47836" lon="5.44031">
        <ele>282</ele>
        <time>2020-03-08T10:19:49Z</time>
      </trkpt>
      <trkpt lat="43.47838" lon="5.44033">
        <ele>282</ele>
        <time>2020-03-08T10:20:13Z</time>
      </trkpt>
      <trkpt lat="43.47839" lon="5.44032">
        <ele>282</ele>
        <time>2020-03-08T10:20:25Z</time>
      </trkpt>
      <trkpt lat="43.47837" lon="5.44031">
        <ele>278</ele>
        <time>2020-03-08T10:20:37Z</time>
      </trkpt>
      <trkpt lat="43.47838" lon="5.4403">
        <ele>276</ele>
        <time>2020-03-08T10:21:20Z</time>
      </trkpt>
      <trkpt lat="43.47838" lon="5.44031">
        <ele>278</ele>
        <time>2020-03-08T10:21:44Z</time>
      </trkpt>
      <trkpt lat="43.47839" lon="5.4403">
        <ele>278</ele>
        <time>2020-03-08T10:21:59Z</time>
      </trkpt>
      <trkpt lat="43.47839" lon="5.44029">
        <ele>278</ele>
        <time>2020-03-08T10:22:15Z</time>
      </trkpt>
      <trkpt lat="43.47838" lon="5.44026">
        <ele>278</ele>
        <time>2020-03-08T10:22:44Z</time>
      </trkpt>
      <trkpt lat="43.47838" lon="5.44028">
        <ele>278</ele>
        <time>2020-03-08T10:23:26Z</time>
      </trkpt>
      <trkpt lat="43.47837" lon="5.44028">
        <ele>278</ele>
        <time>2020-03-08T10:24:48Z</time>
      </trkpt>
      <trkpt lat="43.47835" lon="5.4403">
        <ele>278</ele>
        <time>2020-03-08T10:25:05Z</time>
      </trkpt>
      <trkpt lat="43.47829" lon="5.44031">
        <ele>278</ele>
        <time>2020-03-08T10:25:16Z</time>
      </trkpt>
      <trkpt lat="43.47829" lon="5.4403">
        <ele>278</ele>
        <time>2020-03-08T10:25:32Z</time>
      </trkpt>
      <trkpt lat="43.4783" lon="5.44031">
        <ele>278</ele>
        <time>2020-03-08T10:25:52Z</time>
      </trkpt>
      <trkpt lat="43.4783" lon="5.44032">
        <ele>278</ele>
        <time>2020-03-08T10:26:13Z</time>
      </trkpt>
      <trkpt lat="43.47829" lon="5.44038">
        <ele>279</ele>
        <time>2020-03-08T10:26:23Z</time>
      </trkpt>
      <trkpt lat="43.47828" lon="5.44042">
        <ele>281</ele>
        <time>2020-03-08T10:26:35Z</time>
      </trkpt>
      <trkpt lat="43.47826" lon="5.44052">
        <ele>281</ele>
        <time>2020-03-08T10:26:45Z</time>
      </trkpt>
      <trkpt lat="43.47825" lon="5.4406">
        <ele>281</ele>
        <time>2020-03-08T10:26:56Z</time>
      </trkpt>
      <trkpt lat="43.47826" lon="5.44067">
        <ele>281</ele>
        <time>2020-03-08T10:27:05Z</time>
      </trkpt>
      <trkpt lat="43.47826" lon="5.44076">
        <ele>282</ele>
        <time>2020-03-08T10:27:15Z</time>
      </trkpt>
      <trkpt lat="43.47826" lon="5.44087">
        <ele>284</ele>
        <time>2020-03-08T10:27:25Z</time>
      </trkpt>
      <trkpt lat="43.47824" lon="5.44098">
        <ele>285</ele>
        <time>2020-03-08T10:27:34Z</time>
      </trkpt>
      <trkpt lat="43.47822" lon="5.44109">
        <ele>287</ele>
        <time>2020-03-08T10:27:44Z</time>
      </trkpt>
      <trkpt lat="43.47821" lon="5.44122">
        <ele>287</ele>
        <time>2020-03-08T10:27:54Z</time>
      </trkpt>
      <trkpt lat="43.47822" lon="5.44134">
        <ele>287</ele>
        <time>2020-03-08T10:28:04Z</time>
      </trkpt>
      <trkpt lat="43.47821" lon="5.44145">
        <ele>287</ele>
        <time>2020-03-08T10:28:13Z</time>
      </trkpt>
      <trkpt lat="43.47819" lon="5.44157">
        <ele>287</ele>
        <time>2020-03-08T10:28:22Z</time>
      </trkpt>
      <trkpt lat="43.47817" lon="5.44168">
        <ele>287</ele>
        <time>2020-03-08T10:28:31Z</time>
      </trkpt>
      <trkpt lat="43.47816" lon="5.4418">
        <ele>287</ele>
        <time>2020-03-08T10:28:41Z</time>
      </trkpt>
      <trkpt lat="43.47815" lon="5.44192">
        <ele>286</ele>
        <time>2020-03-08T10:28:51Z</time>
      </trkpt>
      <trkpt lat="43.47815" lon="5.44203">
        <ele>284</ele>
        <time>2020-03-08T10:29:00Z</time>
      </trkpt>
      <trkpt lat="43.47817" lon="5.44214">
        <ele>283</ele>
        <time>2020-03-08T10:29:09Z</time>
      </trkpt>
      <trkpt lat="43.4782" lon="5.44225">
        <ele>281</ele>
        <time>2020-03-08T10:29:18Z</time>
      </trkpt>
      <trkpt lat="43.47822" lon="5.4424">
        <ele>281</ele>
        <time>2020-03-08T10:29:28Z</time>
      </trkpt>
      <trkpt lat="43.47826" lon="5.44253">
        <ele>281</ele>
        <time>2020-03-08T10:29:38Z</time>
      </trkpt>
      <trkpt lat="43.47831" lon="5.44267">
        <ele>281</ele>
        <time>2020-03-08T10:29:48Z</time>
      </trkpt>
      <trkpt lat="43.47834" lon="5.44279">
        <ele>281</ele>
        <time>2020-03-08T10:29:57Z</time>
      </trkpt>
      <trkpt lat="43.47835" lon="5.44291">
        <ele>281</ele>
        <time>2020-03-08T10:30:06Z</time>
      </trkpt>
      <trkpt lat="43.47834" lon="5.44305">
        <ele>281</ele>
        <time>2020-03-08T10:30:16Z</time>
      </trkpt>
      <trkpt lat="43.4783" lon="5.44317">
        <ele>281</ele>
        <time>2020-03-08T10:30:25Z</time>
      </trkpt>
      <trkpt lat="43.47827" lon="5.44327">
        <ele>281</ele>
        <time>2020-03-08T10:30:34Z</time>
      </trkpt>
      <trkpt lat="43.47825" lon="5.44339">
        <ele>281</ele>
        <time>2020-03-08T10:30:43Z</time>
      </trkpt>
      <trkpt lat="43.47823" lon="5.44354">
        <ele>281</ele>
        <time>2020-03-08T10:30:52Z</time>
      </trkpt>
      <trkpt lat="43.47819" lon="5.44368">
        <ele>281</ele>
        <time>2020-03-08T10:31:02Z</time>
      </trkpt>
      <trkpt lat="43.47816" lon="5.4438">
        <ele>281</ele>
        <time>2020-03-08T10:31:11Z</time>
      </trkpt>
      <trkpt lat="43.47813" lon="5.44381">
        <ele>281</ele>
        <time>2020-03-08T10:31:22Z</time>
      </trkpt>
      <trkpt lat="43.4781" lon="5.44387">
        <ele>281</ele>
        <time>2020-03-08T10:31:32Z</time>
      </trkpt>
      <trkpt lat="43.47808" lon="5.44391">
        <ele>281</ele>
        <time>2020-03-08T10:31:41Z</time>
      </trkpt>
      <trkpt lat="43.4781" lon="5.44388">
        <ele>281</ele>
        <time>2020-03-08T10:31:51Z</time>
      </trkpt>
      <trkpt lat="43.47809" lon="5.44385">
        <ele>281</ele>
        <time>2020-03-08T10:32:00Z</time>
      </trkpt>
      <trkpt lat="43.47807" lon="5.44386">
        <ele>281</ele>
        <time>2020-03-08T10:32:10Z</time>
      </trkpt>
      <trkpt lat="43.47808" lon="5.44389">
        <ele>281</ele>
        <time>2020-03-08T10:32:24Z</time>
      </trkpt>
      <trkpt lat="43.47804" lon="5.4439">
        <ele>281</ele>
        <time>2020-03-08T10:32:35Z</time>
      </trkpt>
      <trkpt lat="43.47804" lon="5.44388">
        <ele>281</ele>
        <time>2020-03-08T10:32:46Z</time>
      </trkpt>
      <trkpt lat="43.47805" lon="5.44387">
        <ele>281</ele>
        <time>2020-03-08T10:32:55Z</time>
      </trkpt>
      <trkpt lat="43.47806" lon="5.4439">
        <ele>281</ele>
        <time>2020-03-08T10:33:05Z</time>
      </trkpt>
      <trkpt lat="43.47804" lon="5.44393">
        <ele>281</ele>
        <time>2020-03-08T10:33:14Z</time>
      </trkpt>
      <trkpt lat="43.47801" lon="5.444">
        <ele>282</ele>
        <time>2020-03-08T10:33:26Z</time>
      </trkpt>
      <trkpt lat="43.47799" lon="5.44406">
        <ele>285</ele>
        <time>2020-03-08T10:33:36Z</time>
      </trkpt>
      <trkpt lat="43.47794" lon="5.44415">
        <ele>285</ele>
        <time>2020-03-08T10:33:45Z</time>
      </trkpt>
      <trkpt lat="43.4779" lon="5.44424">
        <ele>286</ele>
        <time>2020-03-08T10:33:54Z</time>
      </trkpt>
      <trkpt lat="43.47784" lon="5.44431">
        <ele>287</ele>
        <time>2020-03-08T10:34:03Z</time>
      </trkpt>
      <trkpt lat="43.47776" lon="5.44439">
        <ele>287</ele>
        <time>2020-03-08T10:34:13Z</time>
      </trkpt>
      <trkpt lat="43.47769" lon="5.44447">
        <ele>287</ele>
        <time>2020-03-08T10:34:23Z</time>
      </trkpt>
      <trkpt lat="43.47766" lon="5.44452">
        <ele>287</ele>
        <time>2020-03-08T10:34:32Z</time>
      </trkpt>
      <trkpt lat="43.47761" lon="5.44457">
        <ele>287</ele>
        <time>2020-03-08T10:34:41Z</time>
      </trkpt>
      <trkpt lat="43.47756" lon="5.44466">
        <ele>287</ele>
        <time>2020-03-08T10:34:50Z</time>
      </trkpt>
      <trkpt lat="43.4775" lon="5.44469">
        <ele>287</ele>
        <time>2020-03-08T10:35:00Z</time>
      </trkpt>
      <trkpt lat="43.47744" lon="5.44476">
        <ele>287</ele>
        <time>2020-03-08T10:35:10Z</time>
      </trkpt>
      <trkpt lat="43.47737" lon="5.44486">
        <ele>287</ele>
        <time>2020-03-08T10:35:20Z</time>
      </trkpt>
      <trkpt lat="43.47733" lon="5.44495">
        <ele>287</ele>
        <time>2020-03-08T10:35:29Z</time>
      </trkpt>
      <trkpt lat="43.47729" lon="5.44506">
        <ele>287</ele>
        <time>2020-03-08T10:35:39Z</time>
      </trkpt>
      <trkpt lat="43.47727" lon="5.44515">
        <ele>288</ele>
        <time>2020-03-08T10:35:48Z</time>
      </trkpt>
      <trkpt lat="43.47723" lon="5.44528">
        <ele>289</ele>
        <time>2020-03-08T10:35:58Z</time>
      </trkpt>
      <trkpt lat="43.47719" lon="5.44537">
        <ele>289</ele>
        <time>2020-03-08T10:36:07Z</time>
      </trkpt>
      <trkpt lat="43.47713" lon="5.44548">
        <ele>289</ele>
        <time>2020-03-08T10:36:16Z</time>
      </trkpt>
      <trkpt lat="43.47707" lon="5.44558">
        <ele>289</ele>
        <time>2020-03-08T10:36:26Z</time>
      </trkpt>
      <trkpt lat="43.47701" lon="5.44569">
        <ele>289</ele>
        <time>2020-03-08T10:36:36Z</time>
      </trkpt>
      <trkpt lat="43.47696" lon="5.44581">
        <ele>289</ele>
        <time>2020-03-08T10:36:46Z</time>
      </trkpt>
      <trkpt lat="43.4769" lon="5.44593">
        <ele>289</ele>
        <time>2020-03-08T10:36:56Z</time>
      </trkpt>
      <trkpt lat="43.47683" lon="5.44604">
        <ele>289</ele>
        <time>2020-03-08T10:37:05Z</time>
      </trkpt>
      <trkpt lat="43.47678" lon="5.44615">
        <ele>289</ele>
        <time>2020-03-08T10:37:14Z</time>
      </trkpt>
      <trkpt lat="43.47673" lon="5.44627">
        <ele>289</ele>
        <time>2020-03-08T10:37:23Z</time>
      </trkpt>
      <trkpt lat="43.47668" lon="5.4464">
        <ele>289</ele>
        <time>2020-03-08T10:37:32Z</time>
      </trkpt>
      <trkpt lat="43.47667" lon="5.44654">
        <ele>289</ele>
        <time>2020-03-08T10:37:41Z</time>
      </trkpt>
      <trkpt lat="43.47665" lon="5.44666">
        <ele>289</ele>
        <time>2020-03-08T10:37:50Z</time>
      </trkpt>
      <trkpt lat="43.47664" lon="5.44679">
        <ele>289</ele>
        <time>2020-03-08T10:37:59Z</time>
      </trkpt>
      <trkpt lat="43.47661" lon="5.44692">
        <ele>289</ele>
        <time>2020-03-08T10:38:08Z</time>
      </trkpt>
      <trkpt lat="43.47659" lon="5.44703">
        <ele>289</ele>
        <time>2020-03-08T10:38:17Z</time>
      </trkpt>
      <trkpt lat="43.47656" lon="5.44715">
        <ele>289</ele>
        <time>2020-03-08T10:38:26Z</time>
      </trkpt>
      <trkpt lat="43.47656" lon="5.44727">
        <ele>289</ele>
        <time>2020-03-08T10:38:35Z</time>
      </trkpt>
      <trkpt lat="43.47657" lon="5.4474">
        <ele>288</ele>
        <time>2020-03-08T10:38:45Z</time>
      </trkpt>
      <trkpt lat="43.47658" lon="5.44752">
        <ele>287</ele>
        <time>2020-03-08T10:38:54Z</time>
      </trkpt>
      <trkpt lat="43.4766" lon="5.44765">
        <ele>285</ele>
        <time>2020-03-08T10:39:03Z</time>
      </trkpt>
      <trkpt lat="43.4766" lon="5.44778">
        <ele>284</ele>
        <time>2020-03-08T10:39:13Z</time>
      </trkpt>
      <trkpt lat="43.4766" lon="5.44779">
        <ele>283</ele>
        <time>2020-03-08T10:40:35Z</time>
      </trkpt>
      <trkpt lat="43.47658" lon="5.44779">
        <ele>283</ele>
        <time>2020-03-08T10:41:15Z</time>
      </trkpt>
      <trkpt lat="43.47659" lon="5.44781">
        <ele>283</ele>
        <time>2020-03-08T10:41:37Z</time>
      </trkpt>
      <trkpt lat="43.4766" lon="5.44793">
        <ele>283</ele>
        <time>2020-03-08T10:41:46Z</time>
      </trkpt>
      <trkpt lat="43.4766" lon="5.44805">
        <ele>283</ele>
        <time>2020-03-08T10:41:55Z</time>
      </trkpt>
      <trkpt lat="43.4766" lon="5.44817">
        <ele>283</ele>
        <time>2020-03-08T10:42:05Z</time>
      </trkpt>
      <trkpt lat="43.4766" lon="5.44829">
        <ele>283</ele>
        <time>2020-03-08T10:42:15Z</time>
      </trkpt>
      <trkpt lat="43.47661" lon="5.44841">
        <ele>284</ele>
        <time>2020-03-08T10:42:25Z</time>
      </trkpt>
      <trkpt lat="43.47662" lon="5.44851">
        <ele>286</ele>
        <time>2020-03-08T10:42:34Z</time>
      </trkpt>
      <trkpt lat="43.47662" lon="5.44865">
        <ele>286</ele>
        <time>2020-03-08T10:42:44Z</time>
      </trkpt>
      <trkpt lat="43.47664" lon="5.44875">
        <ele>287</ele>
        <time>2020-03-08T10:42:53Z</time>
      </trkpt>
      <trkpt lat="43.47668" lon="5.44887">
        <ele>288</ele>
        <time>2020-03-08T10:43:02Z</time>
      </trkpt>
      <trkpt lat="43.4767" lon="5.449">
        <ele>288</ele>
        <time>2020-03-08T10:43:11Z</time>
      </trkpt>
      <trkpt lat="43.47672" lon="5.44913">
        <ele>288</ele>
        <time>2020-03-08T10:43:20Z</time>
      </trkpt>
      <trkpt lat="43.47673" lon="5.44927">
        <ele>288</ele>
        <time>2020-03-08T10:43:29Z</time>
      </trkpt>
      <trkpt lat="43.47675" lon="5.4494">
        <ele>288</ele>
        <time>2020-03-08T10:43:38Z</time>
      </trkpt>
      <trkpt lat="43.47679" lon="5.44951">
        <ele>288</ele>
        <time>2020-03-08T10:43:47Z</time>
      </trkpt>
      <trkpt lat="43.47684" lon="5.44963">
        <ele>288</ele>
        <time>2020-03-08T10:43:56Z</time>
      </trkpt>
      <trkpt lat="43.47689" lon="5.44974">
        <ele>288</ele>
        <time>2020-03-08T10:44:05Z</time>
      </trkpt>
      <trkpt lat="43.47694" lon="5.44985">
        <ele>288</ele>
        <time>2020-03-08T10:44:15Z</time>
      </trkpt>
      <trkpt lat="43.47699" lon="5.44994">
        <ele>288</ele>
        <time>2020-03-08T10:44:25Z</time>
      </trkpt>
      <trkpt lat="43.47706" lon="5.44996">
        <ele>288</ele>
        <time>2020-03-08T10:44:34Z</time>
      </trkpt>
      <trkpt lat="43.47716" lon="5.44997">
        <ele>288</ele>
        <time>2020-03-08T10:44:44Z</time>
      </trkpt>
      <trkpt lat="43.47725" lon="5.44999">
        <ele>288</ele>
        <time>2020-03-08T10:44:54Z</time>
      </trkpt>
      <trkpt lat="43.47735" lon="5.44999">
        <ele>286</ele>
        <time>2020-03-08T10:45:04Z</time>
      </trkpt>
      <trkpt lat="43.47746" lon="5.45">
        <ele>285</ele>
        <time>2020-03-08T10:45:13Z</time>
      </trkpt>
      <trkpt lat="43.47755" lon="5.45">
        <ele>284</ele>
        <time>2020-03-08T10:45:22Z</time>
      </trkpt>
      <trkpt lat="43.47764" lon="5.45001">
        <ele>284</ele>
        <time>2020-03-08T10:45:32Z</time>
      </trkpt>
      <trkpt lat="43.47775" lon="5.45004">
        <ele>283</ele>
        <time>2020-03-08T10:45:42Z</time>
      </trkpt>
      <trkpt lat="43.47784" lon="5.45007">
        <ele>281</ele>
        <time>2020-03-08T10:45:52Z</time>
      </trkpt>
      <trkpt lat="43.4779" lon="5.45007">
        <ele>281</ele>
        <time>2020-03-08T10:46:01Z</time>
      </trkpt>
      <trkpt lat="43.47797" lon="5.45009">
        <ele>281</ele>
        <time>2020-03-08T10:46:10Z</time>
      </trkpt>
      <trkpt lat="43.47797" lon="5.4501">
        <ele>281</ele>
        <time>2020-03-08T10:46:35Z</time>
      </trkpt>
      <trkpt lat="43.47799" lon="5.45012">
        <ele>281</ele>
        <time>2020-03-08T10:46:51Z</time>
      </trkpt>
      <trkpt lat="43.478" lon="5.45011">
        <ele>282</ele>
        <time>2020-03-08T10:47:09Z</time>
      </trkpt>
      <trkpt lat="43.47801" lon="5.45009">
        <ele>282</ele>
        <time>2020-03-08T10:47:19Z</time>
      </trkpt>
      <trkpt lat="43.47797" lon="5.45011">
        <ele>282</ele>
        <time>2020-03-08T10:47:30Z</time>
      </trkpt>
      <trkpt lat="43.47796" lon="5.45015">
        <ele>283</ele>
        <time>2020-03-08T10:47:41Z</time>
      </trkpt>
      <trkpt lat="43.47797" lon="5.45016">
        <ele>283</ele>
        <time>2020-03-08T10:47:50Z</time>
      </trkpt>
      <trkpt lat="43.47799" lon="5.45017">
        <ele>283</ele>
        <time>2020-03-08T10:48:05Z</time>
      </trkpt>
      <trkpt lat="43.47802" lon="5.45019">
        <ele>283</ele>
        <time>2020-03-08T10:48:16Z</time>
      </trkpt>
      <trkpt lat="43.47805" lon="5.45029">
        <ele>284</ele>
        <time>2020-03-08T10:48:26Z</time>
      </trkpt>
      <trkpt lat="43.47808" lon="5.45041">
        <ele>284</ele>
        <time>2020-03-08T10:48:36Z</time>
      </trkpt>
      <trkpt lat="43.4781" lon="5.45052">
        <ele>284</ele>
        <time>2020-03-08T10:48:46Z</time>
      </trkpt>
      <trkpt lat="43.47811" lon="5.45064">
        <ele>283</ele>
        <time>2020-03-08T10:48:55Z</time>
      </trkpt>
      <trkpt lat="43.47811" lon="5.45076">
        <ele>283</ele>
        <time>2020-03-08T10:49:05Z</time>
      </trkpt>
      <trkpt lat="43.47807" lon="5.45088">
        <ele>282</ele>
        <time>2020-03-08T10:49:15Z</time>
      </trkpt>
      <trkpt lat="43.47803" lon="5.45099">
        <ele>282</ele>
        <time>2020-03-08T10:49:24Z</time>
      </trkpt>
      <trkpt lat="43.47798" lon="5.45107">
        <ele>281</ele>
        <time>2020-03-08T10:49:35Z</time>
      </trkpt>
      <trkpt lat="43.47792" lon="5.45117">
        <ele>280</ele>
        <time>2020-03-08T10:49:44Z</time>
      </trkpt>
      <trkpt lat="43.47785" lon="5.45126">
        <ele>279</ele>
        <time>2020-03-08T10:49:54Z</time>
      </trkpt>
      <trkpt lat="43.4778" lon="5.45138">
        <ele>278</ele>
        <time>2020-03-08T10:50:04Z</time>
      </trkpt>
      <trkpt lat="43.47775" lon="5.45149">
        <ele>276</ele>
        <time>2020-03-08T10:50:14Z</time>
      </trkpt>
      <trkpt lat="43.4777" lon="5.4516">
        <ele>274</ele>
        <time>2020-03-08T10:50:24Z</time>
      </trkpt>
      <trkpt lat="43.47765" lon="5.45165">
        <ele>274</ele>
        <time>2020-03-08T10:50:35Z</time>
      </trkpt>
      <trkpt lat="43.47762" lon="5.45166">
        <ele>270</ele>
        <time>2020-03-08T10:50:49Z</time>
      </trkpt>
      <trkpt lat="43.47761" lon="5.45171">
        <ele>270</ele>
        <time>2020-03-08T10:50:59Z</time>
      </trkpt>
      <trkpt lat="43.47757" lon="5.4518">
        <ele>270</ele>
        <time>2020-03-08T10:51:08Z</time>
      </trkpt>
      <trkpt lat="43.47752" lon="5.45187">
        <ele>270</ele>
        <time>2020-03-08T10:51:17Z</time>
      </trkpt>
      <trkpt lat="43.47746" lon="5.45197">
        <ele>269</ele>
        <time>2020-03-08T10:51:27Z</time>
      </trkpt>
      <trkpt lat="43.47742" lon="5.45202">
        <ele>269</ele>
        <time>2020-03-08T10:51:37Z</time>
      </trkpt>
      <trkpt lat="43.4774" lon="5.45201">
        <ele>266</ele>
        <time>2020-03-08T10:51:50Z</time>
      </trkpt>
      <trkpt lat="43.47739" lon="5.45201">
        <ele>264</ele>
        <time>2020-03-08T10:52:17Z</time>
      </trkpt>
      <trkpt lat="43.47738" lon="5.45204">
        <ele>264</ele>
        <time>2020-03-08T10:52:30Z</time>
      </trkpt>
      <trkpt lat="43.47735" lon="5.45206">
        <ele>264</ele>
        <time>2020-03-08T10:52:43Z</time>
      </trkpt>
      <trkpt lat="43.4773" lon="5.45216">
        <ele>264</ele>
        <time>2020-03-08T10:52:53Z</time>
      </trkpt>
      <trkpt lat="43.47725" lon="5.45225">
        <ele>264</ele>
        <time>2020-03-08T10:53:03Z</time>
      </trkpt>
      <trkpt lat="43.4772" lon="5.45232">
        <ele>264</ele>
        <time>2020-03-08T10:53:12Z</time>
      </trkpt>
      <trkpt lat="43.47715" lon="5.45241">
        <ele>263</ele>
        <time>2020-03-08T10:53:22Z</time>
      </trkpt>
      <trkpt lat="43.47711" lon="5.45249">
        <ele>263</ele>
        <time>2020-03-08T10:53:32Z</time>
      </trkpt>
      <trkpt lat="43.47703" lon="5.45254">
        <ele>262</ele>
        <time>2020-03-08T10:53:41Z</time>
      </trkpt>
      <trkpt lat="43.47694" lon="5.45262">
        <ele>261</ele>
        <time>2020-03-08T10:53:50Z</time>
      </trkpt>
      <trkpt lat="43.47686" lon="5.4527">
        <ele>258</ele>
        <time>2020-03-08T10:54:01Z</time>
      </trkpt>
      <trkpt lat="43.47679" lon="5.4528">
        <ele>258</ele>
        <time>2020-03-08T10:54:11Z</time>
      </trkpt>
      <trkpt lat="43.4767" lon="5.45286">
        <ele>255</ele>
        <time>2020-03-08T10:54:21Z</time>
      </trkpt>
      <trkpt lat="43.47662" lon="5.45291">
        <ele>253</ele>
        <time>2020-03-08T10:54:31Z</time>
      </trkpt>
      <trkpt lat="43.47657" lon="5.45295">
        <ele>252</ele>
        <time>2020-03-08T10:54:41Z</time>
      </trkpt>
      <trkpt lat="43.47649" lon="5.453">
        <ele>252</ele>
        <time>2020-03-08T10:54:50Z</time>
      </trkpt>
      <trkpt lat="43.4764" lon="5.45303">
        <ele>251</ele>
        <time>2020-03-08T10:54:59Z</time>
      </trkpt>
      <trkpt lat="43.4763" lon="5.45305">
        <ele>251</ele>
        <time>2020-03-08T10:55:09Z</time>
      </trkpt>
      <trkpt lat="43.47623" lon="5.45308">
        <ele>251</ele>
        <time>2020-03-08T10:55:18Z</time>
      </trkpt>
      <trkpt lat="43.47615" lon="5.45311">
        <ele>251</ele>
        <time>2020-03-08T10:55:28Z</time>
      </trkpt>
      <trkpt lat="43.47604" lon="5.45315">
        <ele>251</ele>
        <time>2020-03-08T10:55:37Z</time>
      </trkpt>
      <trkpt lat="43.47591" lon="5.45317">
        <ele>249</ele>
        <time>2020-03-08T10:55:46Z</time>
      </trkpt>
      <trkpt lat="43.47583" lon="5.45322">
        <ele>249</ele>
        <time>2020-03-08T10:55:56Z</time>
      </trkpt>
      <trkpt lat="43.47575" lon="5.45325">
        <ele>249</ele>
        <time>2020-03-08T10:56:05Z</time>
      </trkpt>
      <trkpt lat="43.47565" lon="5.45325">
        <ele>249</ele>
        <time>2020-03-08T10:56:14Z</time>
      </trkpt>
      <trkpt lat="43.47551" lon="5.45318">
        <ele>249</ele>
        <time>2020-03-08T10:56:23Z</time>
      </trkpt>
      <trkpt lat="43.47543" lon="5.45308">
        <ele>244</ele>
        <time>2020-03-08T10:56:32Z</time>
      </trkpt>
      <trkpt lat="43.47534" lon="5.45305">
        <ele>242</ele>
        <time>2020-03-08T10:56:41Z</time>
      </trkpt>
      <trkpt lat="43.47526" lon="5.45312">
        <ele>240</ele>
        <time>2020-03-08T10:56:50Z</time>
      </trkpt>
      <trkpt lat="43.4753" lon="5.45322">
        <ele>237</ele>
        <time>2020-03-08T10:56:59Z</time>
      </trkpt>
      <trkpt lat="43.47535" lon="5.4533">
        <ele>235</ele>
        <time>2020-03-08T10:57:09Z</time>
      </trkpt>
      <trkpt lat="43.47539" lon="5.45336">
        <ele>234</ele>
        <time>2020-03-08T10:57:19Z</time>
      </trkpt>
      <trkpt lat="43.47546" lon="5.45343">
        <ele>234</ele>
        <time>2020-03-08T10:57:28Z</time>
      </trkpt>
      <trkpt lat="43.47553" lon="5.4535">
        <ele>231</ele>
        <time>2020-03-08T10:57:37Z</time>
      </trkpt>
      <trkpt lat="43.47561" lon="5.45356">
        <ele>229</ele>
        <time>2020-03-08T10:57:46Z</time>
      </trkpt>
      <trkpt lat="43.47565" lon="5.45362">
        <ele>229</ele>
        <time>2020-03-08T10:57:55Z</time>
      </trkpt>
      <trkpt lat="43.47572" lon="5.45374">
        <ele>229</ele>
        <time>2020-03-08T10:58:04Z</time>
      </trkpt>
      <trkpt lat="43.47567" lon="5.45384">
        <ele>228</ele>
        <time>2020-03-08T10:58:14Z</time>
      </trkpt>
      <trkpt lat="43.47559" lon="5.45391">
        <ele>227</ele>
        <time>2020-03-08T10:58:24Z</time>
      </trkpt>
      <trkpt lat="43.47551" lon="5.45395">
        <ele>227</ele>
        <time>2020-03-08T10:58:34Z</time>
      </trkpt>
      <trkpt lat="43.47542" lon="5.45399">
        <ele>227</ele>
        <time>2020-03-08T10:58:44Z</time>
      </trkpt>
      <trkpt lat="43.47533" lon="5.45403">
        <ele>227</ele>
        <time>2020-03-08T10:58:57Z</time>
      </trkpt>
      <trkpt lat="43.47525" lon="5.45405">
        <ele>225</ele>
        <time>2020-03-08T10:59:06Z</time>
      </trkpt>
      <trkpt lat="43.47515" lon="5.4541">
        <ele>222</ele>
        <time>2020-03-08T10:59:15Z</time>
      </trkpt>
      <trkpt lat="43.47507" lon="5.45415">
        <ele>220</ele>
        <time>2020-03-08T10:59:24Z</time>
      </trkpt>
      <trkpt lat="43.47498" lon="5.45423">
        <ele>219</ele>
        <time>2020-03-08T10:59:34Z</time>
      </trkpt>
      <trkpt lat="43.47491" lon="5.45431">
        <ele>217</ele>
        <time>2020-03-08T10:59:44Z</time>
      </trkpt>
      <trkpt lat="43.47483" lon="5.45439">
        <ele>217</ele>
        <time>2020-03-08T10:59:54Z</time>
      </trkpt>
      <trkpt lat="43.47474" lon="5.45447">
        <ele>217</ele>
        <time>2020-03-08T11:00:04Z</time>
      </trkpt>
      <trkpt lat="43.47464" lon="5.45455">
        <ele>216</ele>
        <time>2020-03-08T11:00:14Z</time>
      </trkpt>
      <trkpt lat="43.47455" lon="5.45463">
        <ele>214</ele>
        <time>2020-03-08T11:00:24Z</time>
      </trkpt>
      <trkpt lat="43.47446" lon="5.4547">
        <ele>212</ele>
        <time>2020-03-08T11:00:33Z</time>
      </trkpt>
      <trkpt lat="43.47438" lon="5.45481">
        <ele>211</ele>
        <time>2020-03-08T11:00:43Z</time>
      </trkpt>
      <trkpt lat="43.47428" lon="5.4549">
        <ele>209</ele>
        <time>2020-03-08T11:00:53Z</time>
      </trkpt>
      <trkpt lat="43.4742" lon="5.45498">
        <ele>208</ele>
        <time>2020-03-08T11:01:02Z</time>
      </trkpt>
      <trkpt lat="43.4741" lon="5.45507">
        <ele>207</ele>
        <time>2020-03-08T11:01:12Z</time>
      </trkpt>
      <trkpt lat="43.47401" lon="5.45515">
        <ele>206</ele>
        <time>2020-03-08T11:01:21Z</time>
      </trkpt>
      <trkpt lat="43.47392" lon="5.45524">
        <ele>206</ele>
        <time>2020-03-08T11:01:31Z</time>
      </trkpt>
      <trkpt lat="43.47385" lon="5.45532">
        <ele>206</ele>
        <time>2020-03-08T11:01:40Z</time>
      </trkpt>
      <trkpt lat="43.47377" lon="5.45537">
        <ele>206</ele>
        <time>2020-03-08T11:01:49Z</time>
      </trkpt>
      <trkpt lat="43.47372" lon="5.45539">
        <ele>206</ele>
        <time>2020-03-08T11:02:05Z</time>
      </trkpt>
      <trkpt lat="43.47371" lon="5.45538">
        <ele>206</ele>
        <time>2020-03-08T11:02:15Z</time>
      </trkpt>
      <trkpt lat="43.47371" lon="5.45539">
        <ele>206</ele>
        <time>2020-03-08T11:02:32Z</time>
      </trkpt>
      <trkpt lat="43.47373" lon="5.45538">
        <ele>206</ele>
        <time>2020-03-08T11:02:45Z</time>
      </trkpt>
      <trkpt lat="43.47373" lon="5.45539">
        <ele>206</ele>
        <time>2020-03-08T11:03:01Z</time>
      </trkpt>
      <trkpt lat="43.47374" lon="5.45536">
        <ele>206</ele>
        <time>2020-03-08T11:03:11Z</time>
      </trkpt>
      <trkpt lat="43.47377" lon="5.45532">
        <ele>206</ele>
        <time>2020-03-08T11:03:24Z</time>
      </trkpt>
      <trkpt lat="43.47376" lon="5.45533">
        <ele>206</ele>
        <time>2020-03-08T11:03:37Z</time>
      </trkpt>
      <trkpt lat="43.47373" lon="5.45535">
        <ele>206</ele>
        <time>2020-03-08T11:03:59Z</time>
      </trkpt>
      <trkpt lat="43.47371" lon="5.45537">
        <ele>206</ele>
        <time>2020-03-08T11:04:19Z</time>
      </trkpt>
      <trkpt lat="43.47368" lon="5.45536">
        <ele>207</ele>
        <time>2020-03-08T11:04:29Z</time>
      </trkpt>
      <trkpt lat="43.47363" lon="5.45527">
        <ele>209</ele>
        <time>2020-03-08T11:04:39Z</time>
      </trkpt>
      <trkpt lat="43.47358" lon="5.45516">
        <ele>209</ele>
        <time>2020-03-08T11:04:48Z</time>
      </trkpt>
      <trkpt lat="43.47353" lon="5.45506">
        <ele>209</ele>
        <time>2020-03-08T11:04:57Z</time>
      </trkpt>
      <trkpt lat="43.47349" lon="5.45496">
        <ele>209</ele>
        <time>2020-03-08T11:05:07Z</time>
      </trkpt>
      <trkpt lat="43.47344" lon="5.45485">
        <ele>209</ele>
        <time>2020-03-08T11:05:17Z</time>
      </trkpt>
      <trkpt lat="43.47337" lon="5.45473">
        <ele>207</ele>
        <time>2020-03-08T11:05:27Z</time>
      </trkpt>
      <trkpt lat="43.47331" lon="5.45464">
        <ele>204</ele>
        <time>2020-03-08T11:05:36Z</time>
      </trkpt>
      <trkpt lat="43.47322" lon="5.45456">
        <ele>204</ele>
        <time>2020-03-08T11:05:47Z</time>
      </trkpt>
      <trkpt lat="43.47318" lon="5.45445">
        <ele>204</ele>
        <time>2020-03-08T11:05:56Z</time>
      </trkpt>
      <trkpt lat="43.47313" lon="5.45433">
        <ele>204</ele>
        <time>2020-03-08T11:06:05Z</time>
      </trkpt>
      <trkpt lat="43.47308" lon="5.4542">
        <ele>204</ele>
        <time>2020-03-08T11:06:14Z</time>
      </trkpt>
      <trkpt lat="43.47305" lon="5.45409">
        <ele>202</ele>
        <time>2020-03-08T11:06:23Z</time>
      </trkpt>
      <trkpt lat="43.473" lon="5.454">
        <ele>202</ele>
        <time>2020-03-08T11:06:33Z</time>
      </trkpt>
      <trkpt lat="43.47293" lon="5.45393">
        <ele>202</ele>
        <time>2020-03-08T11:06:42Z</time>
      </trkpt>
      <trkpt lat="43.47285" lon="5.45387">
        <ele>201</ele>
        <time>2020-03-08T11:06:51Z</time>
      </trkpt>
      <trkpt lat="43.47279" lon="5.45379">
        <ele>201</ele>
        <time>2020-03-08T11:07:00Z</time>
      </trkpt>
      <trkpt lat="43.47272" lon="5.45372">
        <ele>201</ele>
        <time>2020-03-08T11:07:09Z</time>
      </trkpt>
      <trkpt lat="43.47263" lon="5.45364">
        <ele>199</ele>
        <time>2020-03-08T11:07:18Z</time>
      </trkpt>
      <trkpt lat="43.47254" lon="5.4536">
        <ele>197</ele>
        <time>2020-03-08T11:07:27Z</time>
      </trkpt>
      <trkpt lat="43.47246" lon="5.45364">
        <ele>197</ele>
        <time>2020-03-08T11:07:37Z</time>
      </trkpt>
      <trkpt lat="43.47238" lon="5.45365">
        <ele>197</ele>
        <time>2020-03-08T11:07:46Z</time>
      </trkpt>
      <trkpt lat="43.47228" lon="5.45365">
        <ele>196</ele>
        <time>2020-03-08T11:07:56Z</time>
      </trkpt>
      <trkpt lat="43.47218" lon="5.45364">
        <ele>196</ele>
        <time>2020-03-08T11:08:06Z</time>
      </trkpt>
      <trkpt lat="43.47206" lon="5.4537">
        <ele>195</ele>
        <time>2020-03-08T11:08:16Z</time>
      </trkpt>
      <trkpt lat="43.472" lon="5.4538">
        <ele>195</ele>
        <time>2020-03-08T11:08:26Z</time>
      </trkpt>
      <trkpt lat="43.47197" lon="5.45382">
        <ele>195</ele>
        <time>2020-03-08T11:08:41Z</time>
      </trkpt>
      <trkpt lat="43.47198" lon="5.45381">
        <ele>195</ele>
        <time>2020-03-08T11:08:50Z</time>
      </trkpt>
      <trkpt lat="43.47197" lon="5.4538">
        <ele>195</ele>
        <time>2020-03-08T11:08:51Z</time>
      </trkpt>
    </trkseg>
  </trk>
</gpx>